﻿<?xml version="1.0" encoding="UTF-8" standalone="no" ?>
<gpx xmlns="http://www.topografix.com/GPX/1/1" creator="CompeGPS" version="1.1" xmlns:xsi="http://www.w3.org/2001/XMLSchema-instance" xsi:schemaLocation="http://www.topografix.com/GPX/1/1 http://www.topografix.com/GPX/1/1/gpx.xsd http://www.garmin.com/xmlschemas/GpxExtensions/v3 http://www.garmin.com/xmlschemas/GpxExtensionsv3.xsd http://www.garmin.com/xmlschemas/TrackPointExtension/v1 http://www.garmin.com/xmlschemas/TrackPointExtensionv1.xsd" xmlns:gpxtpx="http://www.garmin.com/xmlschemas/TrackPointExtension/v1">
  <metadata>
    <link href="http://www.compegps.com">
      <text>CompeGPS TEAM, SL</text>
    </link>
    <time>2019-01-02T20:55:13Z</time>
    <bounds maxlat="42.939801" maxlon="0.447323" minlat="42.923114" minlon="0.403174"/>
  </metadata>
  <trk>
    <name>mountarrouy</name>
    <userMyTwoNav></userMyTwoNav>
    <serialNumber></serialNumber>
    <trkseg>
      <trkpt lat="42.925032" lon="0.403732">
        <ele>1079.0</ele>
        <time>2019-01-02T08:56:00Z</time>
      </trkpt>
      <trkpt lat="42.925095" lon="0.403670">
        <ele>1079.8</ele>
        <time>2019-01-02T08:56:49Z</time>
      </trkpt>
      <trkpt lat="42.925205" lon="0.403601">
        <ele>1081.7</ele>
        <time>2019-01-02T08:57:02Z</time>
      </trkpt>
      <trkpt lat="42.925301" lon="0.403567">
        <ele>1083.3</ele>
        <time>2019-01-02T08:57:14Z</time>
      </trkpt>
      <trkpt lat="42.925399" lon="0.403584">
        <ele>1084.4</ele>
        <time>2019-01-02T08:57:28Z</time>
      </trkpt>
      <trkpt lat="42.925503" lon="0.403539">
        <ele>1086.7</ele>
        <time>2019-01-02T08:57:41Z</time>
      </trkpt>
      <trkpt lat="42.925566" lon="0.403436">
        <ele>1088.7</ele>
        <time>2019-01-02T08:57:52Z</time>
      </trkpt>
      <trkpt lat="42.925643" lon="0.403365">
        <ele>1089.9</ele>
        <time>2019-01-02T08:58:01Z</time>
      </trkpt>
      <trkpt lat="42.925731" lon="0.403316">
        <ele>1090.5</ele>
        <time>2019-01-02T08:58:10Z</time>
      </trkpt>
      <trkpt lat="42.925819" lon="0.403300">
        <ele>1090.7</ele>
        <time>2019-01-02T08:58:21Z</time>
      </trkpt>
      <trkpt lat="42.925911" lon="0.403241">
        <ele>1091.2</ele>
        <time>2019-01-02T08:58:31Z</time>
      </trkpt>
      <trkpt lat="42.925999" lon="0.403174">
        <ele>1090.7</ele>
        <time>2019-01-02T08:58:41Z</time>
      </trkpt>
      <trkpt lat="42.926083" lon="0.403207">
        <ele>1090.2</ele>
        <time>2019-01-02T08:58:51Z</time>
      </trkpt>
      <trkpt lat="42.926139" lon="0.403307">
        <ele>1090.4</ele>
        <time>2019-01-02T08:59:00Z</time>
      </trkpt>
      <trkpt lat="42.926190" lon="0.403421">
        <ele>1090.1</ele>
        <time>2019-01-02T08:59:09Z</time>
      </trkpt>
      <trkpt lat="42.926245" lon="0.403552">
        <ele>1089.8</ele>
        <time>2019-01-02T08:59:21Z</time>
      </trkpt>
      <trkpt lat="42.926328" lon="0.403703">
        <ele>1090.3</ele>
        <time>2019-01-02T08:59:33Z</time>
      </trkpt>
      <trkpt lat="42.926359" lon="0.403845">
        <ele>1091.0</ele>
        <time>2019-01-02T08:59:47Z</time>
      </trkpt>
      <trkpt lat="42.926423" lon="0.404002">
        <ele>1091.2</ele>
        <time>2019-01-02T09:00:03Z</time>
      </trkpt>
      <trkpt lat="42.926499" lon="0.404152">
        <ele>1091.4</ele>
        <time>2019-01-02T09:00:15Z</time>
      </trkpt>
      <trkpt lat="42.926561" lon="0.404323">
        <ele>1092.2</ele>
        <time>2019-01-02T09:00:29Z</time>
      </trkpt>
      <trkpt lat="42.926580" lon="0.404481">
        <ele>1092.8</ele>
        <time>2019-01-02T09:00:42Z</time>
      </trkpt>
      <trkpt lat="42.926609" lon="0.404586">
        <ele>1093.5</ele>
        <time>2019-01-02T09:00:59Z</time>
      </trkpt>
      <trkpt lat="42.926608" lon="0.404667">
        <ele>1093.8</ele>
        <time>2019-01-02T09:01:25Z</time>
      </trkpt>
      <trkpt lat="42.926648" lon="0.404650">
        <ele>1094.1</ele>
        <time>2019-01-02T09:01:54Z</time>
      </trkpt>
      <trkpt lat="42.926704" lon="0.404776">
        <ele>1094.7</ele>
        <time>2019-01-02T09:02:11Z</time>
      </trkpt>
      <trkpt lat="42.926781" lon="0.404887">
        <ele>1095.2</ele>
        <time>2019-01-02T09:02:24Z</time>
      </trkpt>
      <trkpt lat="42.926850" lon="0.405021">
        <ele>1096.2</ele>
        <time>2019-01-02T09:02:39Z</time>
      </trkpt>
      <trkpt lat="42.926938" lon="0.405143">
        <ele>1096.8</ele>
        <time>2019-01-02T09:02:51Z</time>
      </trkpt>
      <trkpt lat="42.927014" lon="0.405275">
        <ele>1096.0</ele>
        <time>2019-01-02T09:03:04Z</time>
      </trkpt>
      <trkpt lat="42.927112" lon="0.405407">
        <ele>1095.9</ele>
        <time>2019-01-02T09:03:16Z</time>
      </trkpt>
      <trkpt lat="42.927232" lon="0.405531">
        <ele>1095.6</ele>
        <time>2019-01-02T09:03:28Z</time>
      </trkpt>
      <trkpt lat="42.927330" lon="0.405581">
        <ele>1093.8</ele>
        <time>2019-01-02T09:03:41Z</time>
      </trkpt>
      <trkpt lat="42.927398" lon="0.405689">
        <ele>1093.0</ele>
        <time>2019-01-02T09:03:52Z</time>
      </trkpt>
      <trkpt lat="42.927469" lon="0.405807">
        <ele>1092.8</ele>
        <time>2019-01-02T09:04:02Z</time>
      </trkpt>
      <trkpt lat="42.927547" lon="0.405935">
        <ele>1093.1</ele>
        <time>2019-01-02T09:04:12Z</time>
      </trkpt>
      <trkpt lat="42.927617" lon="0.406078">
        <ele>1093.6</ele>
        <time>2019-01-02T09:04:22Z</time>
      </trkpt>
      <trkpt lat="42.927693" lon="0.406214">
        <ele>1094.3</ele>
        <time>2019-01-02T09:04:34Z</time>
      </trkpt>
      <trkpt lat="42.927786" lon="0.406340">
        <ele>1094.9</ele>
        <time>2019-01-02T09:04:45Z</time>
      </trkpt>
      <trkpt lat="42.927865" lon="0.406459">
        <ele>1095.3</ele>
        <time>2019-01-02T09:04:56Z</time>
      </trkpt>
      <trkpt lat="42.927955" lon="0.406511">
        <ele>1096.1</ele>
        <time>2019-01-02T09:05:06Z</time>
      </trkpt>
      <trkpt lat="42.928037" lon="0.406448">
        <ele>1095.8</ele>
        <time>2019-01-02T09:05:15Z</time>
      </trkpt>
      <trkpt lat="42.928129" lon="0.406353">
        <ele>1096.5</ele>
        <time>2019-01-02T09:05:25Z</time>
      </trkpt>
      <trkpt lat="42.928245" lon="0.406327">
        <ele>1097.5</ele>
        <time>2019-01-02T09:05:38Z</time>
      </trkpt>
      <trkpt lat="42.928394" lon="0.406365">
        <ele>1100.6</ele>
        <time>2019-01-02T09:05:55Z</time>
      </trkpt>
      <trkpt lat="42.928553" lon="0.406457">
        <ele>1102.9</ele>
        <time>2019-01-02T09:06:08Z</time>
      </trkpt>
      <trkpt lat="42.928702" lon="0.406464">
        <ele>1104.6</ele>
        <time>2019-01-02T09:06:21Z</time>
      </trkpt>
      <trkpt lat="42.928819" lon="0.406512">
        <ele>1105.1</ele>
        <time>2019-01-02T09:06:32Z</time>
      </trkpt>
      <trkpt lat="42.928951" lon="0.406481">
        <ele>1106.1</ele>
        <time>2019-01-02T09:06:43Z</time>
      </trkpt>
      <trkpt lat="42.929072" lon="0.406477">
        <ele>1105.0</ele>
        <time>2019-01-02T09:06:56Z</time>
      </trkpt>
      <trkpt lat="42.929139" lon="0.406323">
        <ele>1105.4</ele>
        <time>2019-01-02T09:07:10Z</time>
      </trkpt>
      <trkpt lat="42.929220" lon="0.406217">
        <ele>1105.4</ele>
        <time>2019-01-02T09:07:20Z</time>
      </trkpt>
      <trkpt lat="42.929316" lon="0.406139">
        <ele>1104.3</ele>
        <time>2019-01-02T09:07:32Z</time>
      </trkpt>
      <trkpt lat="42.929353" lon="0.406016">
        <ele>1104.0</ele>
        <time>2019-01-02T09:07:47Z</time>
      </trkpt>
      <trkpt lat="42.929318" lon="0.405892">
        <ele>1104.8</ele>
        <time>2019-01-02T09:07:57Z</time>
      </trkpt>
      <trkpt lat="42.929280" lon="0.405740">
        <ele>1107.0</ele>
        <time>2019-01-02T09:08:12Z</time>
      </trkpt>
      <trkpt lat="42.929187" lon="0.405623">
        <ele>1109.1</ele>
        <time>2019-01-02T09:08:26Z</time>
      </trkpt>
      <trkpt lat="42.929108" lon="0.405492">
        <ele>1110.5</ele>
        <time>2019-01-02T09:08:40Z</time>
      </trkpt>
      <trkpt lat="42.929047" lon="0.405343">
        <ele>1112.5</ele>
        <time>2019-01-02T09:08:54Z</time>
      </trkpt>
      <trkpt lat="42.929020" lon="0.405174">
        <ele>1114.7</ele>
        <time>2019-01-02T09:09:09Z</time>
      </trkpt>
      <trkpt lat="42.929007" lon="0.404987">
        <ele>1116.6</ele>
        <time>2019-01-02T09:09:23Z</time>
      </trkpt>
      <trkpt lat="42.929008" lon="0.404816">
        <ele>1118.0</ele>
        <time>2019-01-02T09:09:39Z</time>
      </trkpt>
      <trkpt lat="42.929048" lon="0.404677">
        <ele>1120.1</ele>
        <time>2019-01-02T09:10:00Z</time>
      </trkpt>
      <trkpt lat="42.929078" lon="0.404504">
        <ele>1121.5</ele>
        <time>2019-01-02T09:10:17Z</time>
      </trkpt>
      <trkpt lat="42.929128" lon="0.404357">
        <ele>1123.6</ele>
        <time>2019-01-02T09:10:30Z</time>
      </trkpt>
      <trkpt lat="42.929162" lon="0.404203">
        <ele>1126.1</ele>
        <time>2019-01-02T09:10:47Z</time>
      </trkpt>
      <trkpt lat="42.929249" lon="0.404024">
        <ele>1127.6</ele>
        <time>2019-01-02T09:11:02Z</time>
      </trkpt>
      <trkpt lat="42.929355" lon="0.403897">
        <ele>1129.1</ele>
        <time>2019-01-02T09:11:16Z</time>
      </trkpt>
      <trkpt lat="42.929450" lon="0.403843">
        <ele>1130.9</ele>
        <time>2019-01-02T09:11:31Z</time>
      </trkpt>
      <trkpt lat="42.929589" lon="0.403822">
        <ele>1133.3</ele>
        <time>2019-01-02T09:11:50Z</time>
      </trkpt>
      <trkpt lat="42.929694" lon="0.403793">
        <ele>1135.9</ele>
        <time>2019-01-02T09:12:05Z</time>
      </trkpt>
      <trkpt lat="42.929809" lon="0.403708">
        <ele>1138.8</ele>
        <time>2019-01-02T09:12:23Z</time>
      </trkpt>
      <trkpt lat="42.929897" lon="0.403788">
        <ele>1142.2</ele>
        <time>2019-01-02T09:12:42Z</time>
      </trkpt>
      <trkpt lat="42.929934" lon="0.403913">
        <ele>1147.0</ele>
        <time>2019-01-02T09:13:07Z</time>
      </trkpt>
      <trkpt lat="42.929971" lon="0.403964">
        <ele>1150.1</ele>
        <time>2019-01-02T09:14:14Z</time>
      </trkpt>
      <trkpt lat="42.930003" lon="0.404081">
        <ele>1154.8</ele>
        <time>2019-01-02T09:14:38Z</time>
      </trkpt>
      <trkpt lat="42.930006" lon="0.404196">
        <ele>1160.3</ele>
        <time>2019-01-02T09:15:00Z</time>
      </trkpt>
      <trkpt lat="42.930035" lon="0.404294">
        <ele>1164.4</ele>
        <time>2019-01-02T09:15:22Z</time>
      </trkpt>
      <trkpt lat="42.930084" lon="0.404395">
        <ele>1169.2</ele>
        <time>2019-01-02T09:15:50Z</time>
      </trkpt>
      <trkpt lat="42.930104" lon="0.404483">
        <ele>1173.4</ele>
        <time>2019-01-02T09:16:17Z</time>
      </trkpt>
      <trkpt lat="42.930138" lon="0.404601">
        <ele>1176.7</ele>
        <time>2019-01-02T09:16:47Z</time>
      </trkpt>
      <trkpt lat="42.930216" lon="0.404661">
        <ele>1180.4</ele>
        <time>2019-01-02T09:17:11Z</time>
      </trkpt>
      <trkpt lat="42.930279" lon="0.404763">
        <ele>1184.7</ele>
        <time>2019-01-02T09:17:36Z</time>
      </trkpt>
      <trkpt lat="42.930313" lon="0.404898">
        <ele>1188.0</ele>
        <time>2019-01-02T09:17:58Z</time>
      </trkpt>
      <trkpt lat="42.930402" lon="0.404967">
        <ele>1192.1</ele>
        <time>2019-01-02T09:18:21Z</time>
      </trkpt>
      <trkpt lat="42.930414" lon="0.405021">
        <ele>1193.0</ele>
        <time>2019-01-02T09:22:09Z</time>
      </trkpt>
      <trkpt lat="42.930441" lon="0.404986">
        <ele>1193.9</ele>
        <time>2019-01-02T09:22:42Z</time>
      </trkpt>
      <trkpt lat="42.930468" lon="0.405013">
        <ele>1194.1</ele>
        <time>2019-01-02T09:23:30Z</time>
      </trkpt>
      <trkpt lat="42.930579" lon="0.405026">
        <ele>1196.8</ele>
        <time>2019-01-02T09:23:51Z</time>
      </trkpt>
      <trkpt lat="42.930691" lon="0.405037">
        <ele>1200.8</ele>
        <time>2019-01-02T09:24:10Z</time>
      </trkpt>
      <trkpt lat="42.930778" lon="0.405054">
        <ele>1205.2</ele>
        <time>2019-01-02T09:24:31Z</time>
      </trkpt>
      <trkpt lat="42.930888" lon="0.405101">
        <ele>1208.9</ele>
        <time>2019-01-02T09:24:52Z</time>
      </trkpt>
      <trkpt lat="42.930985" lon="0.405143">
        <ele>1212.8</ele>
        <time>2019-01-02T09:25:14Z</time>
      </trkpt>
      <trkpt lat="42.931075" lon="0.405138">
        <ele>1216.8</ele>
        <time>2019-01-02T09:25:37Z</time>
      </trkpt>
      <trkpt lat="42.931164" lon="0.405191">
        <ele>1221.2</ele>
        <time>2019-01-02T09:25:59Z</time>
      </trkpt>
      <trkpt lat="42.931272" lon="0.405193">
        <ele>1225.3</ele>
        <time>2019-01-02T09:26:22Z</time>
      </trkpt>
      <trkpt lat="42.931391" lon="0.405109">
        <ele>1229.0</ele>
        <time>2019-01-02T09:26:41Z</time>
      </trkpt>
      <trkpt lat="42.931498" lon="0.405066">
        <ele>1232.1</ele>
        <time>2019-01-02T09:27:00Z</time>
      </trkpt>
      <trkpt lat="42.931623" lon="0.405060">
        <ele>1236.1</ele>
        <time>2019-01-02T09:27:19Z</time>
      </trkpt>
      <trkpt lat="42.931741" lon="0.405028">
        <ele>1240.2</ele>
        <time>2019-01-02T09:27:42Z</time>
      </trkpt>
      <trkpt lat="42.931857" lon="0.405005">
        <ele>1244.2</ele>
        <time>2019-01-02T09:28:02Z</time>
      </trkpt>
      <trkpt lat="42.931991" lon="0.405015">
        <ele>1248.0</ele>
        <time>2019-01-02T09:28:18Z</time>
      </trkpt>
      <trkpt lat="42.932146" lon="0.405004">
        <ele>1253.2</ele>
        <time>2019-01-02T09:28:38Z</time>
      </trkpt>
      <trkpt lat="42.932256" lon="0.404957">
        <ele>1257.4</ele>
        <time>2019-01-02T09:28:55Z</time>
      </trkpt>
      <trkpt lat="42.932393" lon="0.404990">
        <ele>1260.2</ele>
        <time>2019-01-02T09:29:11Z</time>
      </trkpt>
      <trkpt lat="42.932521" lon="0.405005">
        <ele>1263.1</ele>
        <time>2019-01-02T09:29:29Z</time>
      </trkpt>
      <trkpt lat="42.932616" lon="0.405085">
        <ele>1268.2</ele>
        <time>2019-01-02T09:29:57Z</time>
      </trkpt>
      <trkpt lat="42.932628" lon="0.405220">
        <ele>1271.4</ele>
        <time>2019-01-02T09:30:18Z</time>
      </trkpt>
      <trkpt lat="42.932649" lon="0.405344">
        <ele>1276.4</ele>
        <time>2019-01-02T09:30:37Z</time>
      </trkpt>
      <trkpt lat="42.932655" lon="0.405395">
        <ele>1280.7</ele>
        <time>2019-01-02T09:31:45Z</time>
      </trkpt>
      <trkpt lat="42.932651" lon="0.405528">
        <ele>1282.7</ele>
        <time>2019-01-02T09:33:01Z</time>
      </trkpt>
      <trkpt lat="42.932704" lon="0.405603">
        <ele>1285.9</ele>
        <time>2019-01-02T09:33:24Z</time>
      </trkpt>
      <trkpt lat="42.932716" lon="0.405676">
        <ele>1288.7</ele>
        <time>2019-01-02T09:33:56Z</time>
      </trkpt>
      <trkpt lat="42.932691" lon="0.405759">
        <ele>1289.6</ele>
        <time>2019-01-02T09:34:13Z</time>
      </trkpt>
      <trkpt lat="42.932758" lon="0.405836">
        <ele>1291.9</ele>
        <time>2019-01-02T09:34:29Z</time>
      </trkpt>
      <trkpt lat="42.932799" lon="0.405906">
        <ele>1295.3</ele>
        <time>2019-01-02T09:34:47Z</time>
      </trkpt>
      <trkpt lat="42.932851" lon="0.405956">
        <ele>1298.6</ele>
        <time>2019-01-02T09:35:08Z</time>
      </trkpt>
      <trkpt lat="42.932942" lon="0.405940">
        <ele>1301.3</ele>
        <time>2019-01-02T09:35:25Z</time>
      </trkpt>
      <trkpt lat="42.933013" lon="0.405868">
        <ele>1302.3</ele>
        <time>2019-01-02T09:35:39Z</time>
      </trkpt>
      <trkpt lat="42.933089" lon="0.405889">
        <ele>1303.3</ele>
        <time>2019-01-02T09:35:55Z</time>
      </trkpt>
      <trkpt lat="42.933155" lon="0.405948">
        <ele>1307.1</ele>
        <time>2019-01-02T09:36:28Z</time>
      </trkpt>
      <trkpt lat="42.933182" lon="0.406077">
        <ele>1311.1</ele>
        <time>2019-01-02T09:36:43Z</time>
      </trkpt>
      <trkpt lat="42.933259" lon="0.406168">
        <ele>1317.4</ele>
        <time>2019-01-02T09:45:25Z</time>
      </trkpt>
      <trkpt lat="42.933346" lon="0.406151">
        <ele>1322.4</ele>
        <time>2019-01-02T09:45:49Z</time>
      </trkpt>
      <trkpt lat="42.933399" lon="0.406237">
        <ele>1326.5</ele>
        <time>2019-01-02T09:46:11Z</time>
      </trkpt>
      <trkpt lat="42.933451" lon="0.406330">
        <ele>1330.7</ele>
        <time>2019-01-02T09:46:33Z</time>
      </trkpt>
      <trkpt lat="42.933475" lon="0.406451">
        <ele>1335.9</ele>
        <time>2019-01-02T09:46:56Z</time>
      </trkpt>
      <trkpt lat="42.933560" lon="0.406510">
        <ele>1340.7</ele>
        <time>2019-01-02T09:47:19Z</time>
      </trkpt>
      <trkpt lat="42.933614" lon="0.406564">
        <ele>1344.6</ele>
        <time>2019-01-02T09:47:42Z</time>
      </trkpt>
      <trkpt lat="42.933651" lon="0.406681">
        <ele>1348.9</ele>
        <time>2019-01-02T09:48:06Z</time>
      </trkpt>
      <trkpt lat="42.933737" lon="0.406744">
        <ele>1354.2</ele>
        <time>2019-01-02T09:48:32Z</time>
      </trkpt>
      <trkpt lat="42.933831" lon="0.406733">
        <ele>1358.3</ele>
        <time>2019-01-02T09:48:55Z</time>
      </trkpt>
      <trkpt lat="42.933910" lon="0.406780">
        <ele>1362.4</ele>
        <time>2019-01-02T09:49:16Z</time>
      </trkpt>
      <trkpt lat="42.933973" lon="0.406888">
        <ele>1368.0</ele>
        <time>2019-01-02T09:49:39Z</time>
      </trkpt>
      <trkpt lat="42.934048" lon="0.406992">
        <ele>1372.9</ele>
        <time>2019-01-02T09:50:03Z</time>
      </trkpt>
      <trkpt lat="42.934125" lon="0.407081">
        <ele>1377.2</ele>
        <time>2019-01-02T09:50:25Z</time>
      </trkpt>
      <trkpt lat="42.934177" lon="0.407206">
        <ele>1382.4</ele>
        <time>2019-01-02T09:50:47Z</time>
      </trkpt>
      <trkpt lat="42.934224" lon="0.407295">
        <ele>1386.8</ele>
        <time>2019-01-02T09:51:09Z</time>
      </trkpt>
      <trkpt lat="42.934302" lon="0.407355">
        <ele>1392.4</ele>
        <time>2019-01-02T09:51:37Z</time>
      </trkpt>
      <trkpt lat="42.934378" lon="0.407385">
        <ele>1396.4</ele>
        <time>2019-01-02T09:52:00Z</time>
      </trkpt>
      <trkpt lat="42.934419" lon="0.407462">
        <ele>1402.9</ele>
        <time>2019-01-02T09:52:26Z</time>
      </trkpt>
      <trkpt lat="42.934502" lon="0.407472">
        <ele>1407.1</ele>
        <time>2019-01-02T09:52:46Z</time>
      </trkpt>
      <trkpt lat="42.934578" lon="0.407542">
        <ele>1411.7</ele>
        <time>2019-01-02T09:53:08Z</time>
      </trkpt>
      <trkpt lat="42.934615" lon="0.407770">
        <ele>1420.8</ele>
        <time>2019-01-02T09:57:01Z</time>
      </trkpt>
      <trkpt lat="42.934674" lon="0.407900">
        <ele>1423.9</ele>
        <time>2019-01-02T09:57:18Z</time>
      </trkpt>
      <trkpt lat="42.934668" lon="0.408059">
        <ele>1427.0</ele>
        <time>2019-01-02T09:57:38Z</time>
      </trkpt>
      <trkpt lat="42.934726" lon="0.408191">
        <ele>1429.5</ele>
        <time>2019-01-02T09:57:55Z</time>
      </trkpt>
      <trkpt lat="42.934735" lon="0.408344">
        <ele>1431.9</ele>
        <time>2019-01-02T09:58:08Z</time>
      </trkpt>
      <trkpt lat="42.934777" lon="0.408474">
        <ele>1434.8</ele>
        <time>2019-01-02T09:58:25Z</time>
      </trkpt>
      <trkpt lat="42.934788" lon="0.408623">
        <ele>1437.6</ele>
        <time>2019-01-02T09:58:41Z</time>
      </trkpt>
      <trkpt lat="42.934762" lon="0.408708">
        <ele>1441.3</ele>
        <time>2019-01-02T09:59:41Z</time>
      </trkpt>
      <trkpt lat="42.934782" lon="0.408780">
        <ele>1443.0</ele>
        <time>2019-01-02T10:02:24Z</time>
      </trkpt>
      <trkpt lat="42.934868" lon="0.408881">
        <ele>1446.7</ele>
        <time>2019-01-02T10:02:43Z</time>
      </trkpt>
      <trkpt lat="42.934914" lon="0.409015">
        <ele>1452.2</ele>
        <time>2019-01-02T10:03:09Z</time>
      </trkpt>
      <trkpt lat="42.934935" lon="0.409146">
        <ele>1457.6</ele>
        <time>2019-01-02T10:03:35Z</time>
      </trkpt>
      <trkpt lat="42.935001" lon="0.409223">
        <ele>1461.4</ele>
        <time>2019-01-02T10:03:58Z</time>
      </trkpt>
      <trkpt lat="42.934982" lon="0.409395">
        <ele>1465.2</ele>
        <time>2019-01-02T10:04:19Z</time>
      </trkpt>
      <trkpt lat="42.934996" lon="0.409476">
        <ele>1470.9</ele>
        <time>2019-01-02T10:05:01Z</time>
      </trkpt>
      <trkpt lat="42.935023" lon="0.409564">
        <ele>1474.3</ele>
        <time>2019-01-02T10:05:25Z</time>
      </trkpt>
      <trkpt lat="42.935074" lon="0.409642">
        <ele>1478.9</ele>
        <time>2019-01-02T10:05:49Z</time>
      </trkpt>
      <trkpt lat="42.935063" lon="0.409729">
        <ele>1483.0</ele>
        <time>2019-01-02T10:06:11Z</time>
      </trkpt>
      <trkpt lat="42.935092" lon="0.409807">
        <ele>1486.3</ele>
        <time>2019-01-02T10:06:31Z</time>
      </trkpt>
      <trkpt lat="42.935078" lon="0.409910">
        <ele>1489.7</ele>
        <time>2019-01-02T10:06:54Z</time>
      </trkpt>
      <trkpt lat="42.935067" lon="0.410032">
        <ele>1492.4</ele>
        <time>2019-01-02T10:07:13Z</time>
      </trkpt>
      <trkpt lat="42.935112" lon="0.410131">
        <ele>1496.1</ele>
        <time>2019-01-02T10:07:35Z</time>
      </trkpt>
      <trkpt lat="42.935139" lon="0.410244">
        <ele>1499.5</ele>
        <time>2019-01-02T10:07:52Z</time>
      </trkpt>
      <trkpt lat="42.935135" lon="0.410359">
        <ele>1504.5</ele>
        <time>2019-01-02T10:08:13Z</time>
      </trkpt>
      <trkpt lat="42.935064" lon="0.410413">
        <ele>1507.6</ele>
        <time>2019-01-02T10:10:22Z</time>
      </trkpt>
      <trkpt lat="42.935072" lon="0.410483">
        <ele>1507.0</ele>
        <time>2019-01-02T10:11:21Z</time>
      </trkpt>
      <trkpt lat="42.935065" lon="0.410607">
        <ele>1508.2</ele>
        <time>2019-01-02T10:11:27Z</time>
      </trkpt>
      <trkpt lat="42.935050" lon="0.410734">
        <ele>1511.5</ele>
        <time>2019-01-02T10:11:34Z</time>
      </trkpt>
      <trkpt lat="42.935066" lon="0.410843">
        <ele>1514.4</ele>
        <time>2019-01-02T10:11:43Z</time>
      </trkpt>
      <trkpt lat="42.935076" lon="0.410906">
        <ele>1518.2</ele>
        <time>2019-01-02T10:13:00Z</time>
      </trkpt>
      <trkpt lat="42.935067" lon="0.410931">
        <ele>1518.3</ele>
        <time>2019-01-02T10:14:54Z</time>
      </trkpt>
      <trkpt lat="42.935044" lon="0.411067">
        <ele>1520.0</ele>
        <time>2019-01-02T10:15:08Z</time>
      </trkpt>
      <trkpt lat="42.935065" lon="0.411164">
        <ele>1522.2</ele>
        <time>2019-01-02T10:16:23Z</time>
      </trkpt>
      <trkpt lat="42.935053" lon="0.411306">
        <ele>1523.5</ele>
        <time>2019-01-02T10:16:51Z</time>
      </trkpt>
      <trkpt lat="42.935042" lon="0.411429">
        <ele>1525.0</ele>
        <time>2019-01-02T10:17:00Z</time>
      </trkpt>
      <trkpt lat="42.935035" lon="0.411566">
        <ele>1527.0</ele>
        <time>2019-01-02T10:17:12Z</time>
      </trkpt>
      <trkpt lat="42.935011" lon="0.411698">
        <ele>1529.2</ele>
        <time>2019-01-02T10:17:23Z</time>
      </trkpt>
      <trkpt lat="42.934984" lon="0.411840">
        <ele>1531.9</ele>
        <time>2019-01-02T10:17:37Z</time>
      </trkpt>
      <trkpt lat="42.934958" lon="0.411960">
        <ele>1534.1</ele>
        <time>2019-01-02T10:17:50Z</time>
      </trkpt>
      <trkpt lat="42.934950" lon="0.412086">
        <ele>1537.0</ele>
        <time>2019-01-02T10:18:05Z</time>
      </trkpt>
      <trkpt lat="42.934924" lon="0.412217">
        <ele>1539.8</ele>
        <time>2019-01-02T10:18:21Z</time>
      </trkpt>
      <trkpt lat="42.934889" lon="0.412350">
        <ele>1542.5</ele>
        <time>2019-01-02T10:18:38Z</time>
      </trkpt>
      <trkpt lat="42.934826" lon="0.412452">
        <ele>1545.7</ele>
        <time>2019-01-02T10:18:55Z</time>
      </trkpt>
      <trkpt lat="42.934796" lon="0.412578">
        <ele>1548.6</ele>
        <time>2019-01-02T10:19:11Z</time>
      </trkpt>
      <trkpt lat="42.934766" lon="0.412695">
        <ele>1551.7</ele>
        <time>2019-01-02T10:19:31Z</time>
      </trkpt>
      <trkpt lat="42.934747" lon="0.412800">
        <ele>1554.9</ele>
        <time>2019-01-02T10:19:48Z</time>
      </trkpt>
      <trkpt lat="42.934733" lon="0.412941">
        <ele>1557.6</ele>
        <time>2019-01-02T10:20:03Z</time>
      </trkpt>
      <trkpt lat="42.934697" lon="0.413081">
        <ele>1560.4</ele>
        <time>2019-01-02T10:20:21Z</time>
      </trkpt>
      <trkpt lat="42.934658" lon="0.413206">
        <ele>1563.5</ele>
        <time>2019-01-02T10:20:38Z</time>
      </trkpt>
      <trkpt lat="42.934637" lon="0.413326">
        <ele>1566.1</ele>
        <time>2019-01-02T10:20:52Z</time>
      </trkpt>
      <trkpt lat="42.934598" lon="0.413447">
        <ele>1568.9</ele>
        <time>2019-01-02T10:21:10Z</time>
      </trkpt>
      <trkpt lat="42.934582" lon="0.413587">
        <ele>1572.1</ele>
        <time>2019-01-02T10:21:27Z</time>
      </trkpt>
      <trkpt lat="42.934547" lon="0.413717">
        <ele>1574.8</ele>
        <time>2019-01-02T10:21:43Z</time>
      </trkpt>
      <trkpt lat="42.934551" lon="0.413851">
        <ele>1578.0</ele>
        <time>2019-01-02T10:22:03Z</time>
      </trkpt>
      <trkpt lat="42.934536" lon="0.413991">
        <ele>1580.9</ele>
        <time>2019-01-02T10:22:21Z</time>
      </trkpt>
      <trkpt lat="42.934480" lon="0.414104">
        <ele>1583.1</ele>
        <time>2019-01-02T10:22:34Z</time>
      </trkpt>
      <trkpt lat="42.934453" lon="0.414222">
        <ele>1584.5</ele>
        <time>2019-01-02T10:22:46Z</time>
      </trkpt>
      <trkpt lat="42.934416" lon="0.414334">
        <ele>1587.0</ele>
        <time>2019-01-02T10:23:03Z</time>
      </trkpt>
      <trkpt lat="42.934351" lon="0.414431">
        <ele>1588.8</ele>
        <time>2019-01-02T10:23:17Z</time>
      </trkpt>
      <trkpt lat="42.934284" lon="0.414533">
        <ele>1591.5</ele>
        <time>2019-01-02T10:23:34Z</time>
      </trkpt>
      <trkpt lat="42.934250" lon="0.414667">
        <ele>1595.5</ele>
        <time>2019-01-02T10:23:54Z</time>
      </trkpt>
      <trkpt lat="42.934228" lon="0.414797">
        <ele>1599.1</ele>
        <time>2019-01-02T10:24:14Z</time>
      </trkpt>
      <trkpt lat="42.934179" lon="0.414889">
        <ele>1603.0</ele>
        <time>2019-01-02T10:24:33Z</time>
      </trkpt>
      <trkpt lat="42.934143" lon="0.414998">
        <ele>1606.0</ele>
        <time>2019-01-02T10:24:52Z</time>
      </trkpt>
      <trkpt lat="42.934081" lon="0.415096">
        <ele>1609.6</ele>
        <time>2019-01-02T10:25:11Z</time>
      </trkpt>
      <trkpt lat="42.934033" lon="0.415213">
        <ele>1612.8</ele>
        <time>2019-01-02T10:25:29Z</time>
      </trkpt>
      <trkpt lat="42.933990" lon="0.415313">
        <ele>1616.6</ele>
        <time>2019-01-02T10:25:48Z</time>
      </trkpt>
      <trkpt lat="42.933922" lon="0.415406">
        <ele>1620.2</ele>
        <time>2019-01-02T10:26:07Z</time>
      </trkpt>
      <trkpt lat="42.933841" lon="0.415484">
        <ele>1622.9</ele>
        <time>2019-01-02T10:26:25Z</time>
      </trkpt>
      <trkpt lat="42.933799" lon="0.415574">
        <ele>1626.1</ele>
        <time>2019-01-02T10:26:44Z</time>
      </trkpt>
      <trkpt lat="42.933774" lon="0.415685">
        <ele>1629.8</ele>
        <time>2019-01-02T10:27:05Z</time>
      </trkpt>
      <trkpt lat="42.933730" lon="0.415793">
        <ele>1633.6</ele>
        <time>2019-01-02T10:27:26Z</time>
      </trkpt>
      <trkpt lat="42.933735" lon="0.415907">
        <ele>1637.9</ele>
        <time>2019-01-02T10:27:50Z</time>
      </trkpt>
      <trkpt lat="42.933710" lon="0.415946">
        <ele>1641.6</ele>
        <time>2019-01-02T10:29:12Z</time>
      </trkpt>
      <trkpt lat="42.933627" lon="0.415991">
        <ele>1642.5</ele>
        <time>2019-01-02T10:29:28Z</time>
      </trkpt>
      <trkpt lat="42.933646" lon="0.416116">
        <ele>1644.0</ele>
        <time>2019-01-02T10:29:43Z</time>
      </trkpt>
      <trkpt lat="42.933592" lon="0.416217">
        <ele>1648.2</ele>
        <time>2019-01-02T10:30:03Z</time>
      </trkpt>
      <trkpt lat="42.933536" lon="0.416317">
        <ele>1651.1</ele>
        <time>2019-01-02T10:30:24Z</time>
      </trkpt>
      <trkpt lat="42.933502" lon="0.416452">
        <ele>1654.4</ele>
        <time>2019-01-02T10:30:44Z</time>
      </trkpt>
      <trkpt lat="42.933456" lon="0.416575">
        <ele>1656.9</ele>
        <time>2019-01-02T10:31:02Z</time>
      </trkpt>
      <trkpt lat="42.933424" lon="0.416701">
        <ele>1658.5</ele>
        <time>2019-01-02T10:31:17Z</time>
      </trkpt>
      <trkpt lat="42.933383" lon="0.416819">
        <ele>1660.7</ele>
        <time>2019-01-02T10:31:32Z</time>
      </trkpt>
      <trkpt lat="42.933334" lon="0.416943">
        <ele>1663.0</ele>
        <time>2019-01-02T10:31:49Z</time>
      </trkpt>
      <trkpt lat="42.933347" lon="0.417074">
        <ele>1664.2</ele>
        <time>2019-01-02T10:32:01Z</time>
      </trkpt>
      <trkpt lat="42.933371" lon="0.417210">
        <ele>1665.1</ele>
        <time>2019-01-02T10:32:12Z</time>
      </trkpt>
      <trkpt lat="42.933370" lon="0.417332">
        <ele>1665.6</ele>
        <time>2019-01-02T10:32:22Z</time>
      </trkpt>
      <trkpt lat="42.933353" lon="0.417449">
        <ele>1666.6</ele>
        <time>2019-01-02T10:32:32Z</time>
      </trkpt>
      <trkpt lat="42.933320" lon="0.417570">
        <ele>1667.4</ele>
        <time>2019-01-02T10:32:43Z</time>
      </trkpt>
      <trkpt lat="42.933313" lon="0.417711">
        <ele>1667.7</ele>
        <time>2019-01-02T10:32:52Z</time>
      </trkpt>
      <trkpt lat="42.933307" lon="0.417847">
        <ele>1667.2</ele>
        <time>2019-01-02T10:33:03Z</time>
      </trkpt>
      <trkpt lat="42.933300" lon="0.417959">
        <ele>1666.1</ele>
        <time>2019-01-02T10:33:14Z</time>
      </trkpt>
      <trkpt lat="42.933312" lon="0.418099">
        <ele>1665.4</ele>
        <time>2019-01-02T10:33:24Z</time>
      </trkpt>
      <trkpt lat="42.933347" lon="0.418213">
        <ele>1665.5</ele>
        <time>2019-01-02T10:33:34Z</time>
      </trkpt>
      <trkpt lat="42.933415" lon="0.418301">
        <ele>1665.4</ele>
        <time>2019-01-02T10:33:43Z</time>
      </trkpt>
      <trkpt lat="42.933483" lon="0.418397">
        <ele>1665.7</ele>
        <time>2019-01-02T10:33:53Z</time>
      </trkpt>
      <trkpt lat="42.933562" lon="0.418468">
        <ele>1665.7</ele>
        <time>2019-01-02T10:34:03Z</time>
      </trkpt>
      <trkpt lat="42.933635" lon="0.418541">
        <ele>1665.7</ele>
        <time>2019-01-02T10:34:13Z</time>
      </trkpt>
      <trkpt lat="42.933700" lon="0.418631">
        <ele>1665.4</ele>
        <time>2019-01-02T10:34:25Z</time>
      </trkpt>
      <trkpt lat="42.933801" lon="0.418639">
        <ele>1665.7</ele>
        <time>2019-01-02T10:34:41Z</time>
      </trkpt>
      <trkpt lat="42.933906" lon="0.418645">
        <ele>1666.4</ele>
        <time>2019-01-02T10:34:52Z</time>
      </trkpt>
      <trkpt lat="42.934005" lon="0.418650">
        <ele>1666.3</ele>
        <time>2019-01-02T10:35:02Z</time>
      </trkpt>
      <trkpt lat="42.934088" lon="0.418654">
        <ele>1666.6</ele>
        <time>2019-01-02T10:35:11Z</time>
      </trkpt>
      <trkpt lat="42.934164" lon="0.418599">
        <ele>1667.9</ele>
        <time>2019-01-02T10:36:21Z</time>
      </trkpt>
      <trkpt lat="42.934260" lon="0.418573">
        <ele>1668.0</ele>
        <time>2019-01-02T10:36:31Z</time>
      </trkpt>
      <trkpt lat="42.934362" lon="0.418545">
        <ele>1668.2</ele>
        <time>2019-01-02T10:36:41Z</time>
      </trkpt>
      <trkpt lat="42.934458" lon="0.418542">
        <ele>1669.1</ele>
        <time>2019-01-02T10:36:51Z</time>
      </trkpt>
      <trkpt lat="42.934561" lon="0.418538">
        <ele>1669.5</ele>
        <time>2019-01-02T10:37:01Z</time>
      </trkpt>
      <trkpt lat="42.934643" lon="0.418537">
        <ele>1670.3</ele>
        <time>2019-01-02T10:37:13Z</time>
      </trkpt>
      <trkpt lat="42.934743" lon="0.418546">
        <ele>1671.3</ele>
        <time>2019-01-02T10:37:25Z</time>
      </trkpt>
      <trkpt lat="42.934854" lon="0.418558">
        <ele>1671.7</ele>
        <time>2019-01-02T10:37:37Z</time>
      </trkpt>
      <trkpt lat="42.934977" lon="0.418570">
        <ele>1672.6</ele>
        <time>2019-01-02T10:37:49Z</time>
      </trkpt>
      <trkpt lat="42.935083" lon="0.418568">
        <ele>1673.2</ele>
        <time>2019-01-02T10:37:59Z</time>
      </trkpt>
      <trkpt lat="42.935167" lon="0.418604">
        <ele>1673.7</ele>
        <time>2019-01-02T10:38:07Z</time>
      </trkpt>
      <trkpt lat="42.935242" lon="0.418659">
        <ele>1674.2</ele>
        <time>2019-01-02T10:38:15Z</time>
      </trkpt>
      <trkpt lat="42.935322" lon="0.418744">
        <ele>1675.2</ele>
        <time>2019-01-02T10:38:23Z</time>
      </trkpt>
      <trkpt lat="42.935385" lon="0.418816">
        <ele>1675.7</ele>
        <time>2019-01-02T10:38:30Z</time>
      </trkpt>
      <trkpt lat="42.935429" lon="0.418917">
        <ele>1676.0</ele>
        <time>2019-01-02T10:38:38Z</time>
      </trkpt>
      <trkpt lat="42.935446" lon="0.419045">
        <ele>1675.9</ele>
        <time>2019-01-02T10:38:47Z</time>
      </trkpt>
      <trkpt lat="42.935455" lon="0.419159">
        <ele>1676.0</ele>
        <time>2019-01-02T10:38:57Z</time>
      </trkpt>
      <trkpt lat="42.935481" lon="0.419274">
        <ele>1675.1</ele>
        <time>2019-01-02T10:39:08Z</time>
      </trkpt>
      <trkpt lat="42.935482" lon="0.419400">
        <ele>1673.9</ele>
        <time>2019-01-02T10:39:19Z</time>
      </trkpt>
      <trkpt lat="42.935479" lon="0.419540">
        <ele>1673.0</ele>
        <time>2019-01-02T10:39:29Z</time>
      </trkpt>
      <trkpt lat="42.935492" lon="0.419661">
        <ele>1672.8</ele>
        <time>2019-01-02T10:39:38Z</time>
      </trkpt>
      <trkpt lat="42.935512" lon="0.419792">
        <ele>1671.9</ele>
        <time>2019-01-02T10:39:47Z</time>
      </trkpt>
      <trkpt lat="42.935531" lon="0.419913">
        <ele>1671.3</ele>
        <time>2019-01-02T10:39:55Z</time>
      </trkpt>
      <trkpt lat="42.935563" lon="0.420028">
        <ele>1671.1</ele>
        <time>2019-01-02T10:40:03Z</time>
      </trkpt>
      <trkpt lat="42.935629" lon="0.420103">
        <ele>1671.4</ele>
        <time>2019-01-02T10:40:11Z</time>
      </trkpt>
      <trkpt lat="42.935708" lon="0.420147">
        <ele>1671.8</ele>
        <time>2019-01-02T10:40:19Z</time>
      </trkpt>
      <trkpt lat="42.935792" lon="0.420227">
        <ele>1672.6</ele>
        <time>2019-01-02T10:40:28Z</time>
      </trkpt>
      <trkpt lat="42.935857" lon="0.420321">
        <ele>1673.2</ele>
        <time>2019-01-02T10:40:36Z</time>
      </trkpt>
      <trkpt lat="42.935924" lon="0.420395">
        <ele>1673.1</ele>
        <time>2019-01-02T10:40:44Z</time>
      </trkpt>
      <trkpt lat="42.936003" lon="0.420395">
        <ele>1673.0</ele>
        <time>2019-01-02T10:40:52Z</time>
      </trkpt>
      <trkpt lat="42.936079" lon="0.420447">
        <ele>1673.4</ele>
        <time>2019-01-02T10:41:00Z</time>
      </trkpt>
      <trkpt lat="42.936154" lon="0.420530">
        <ele>1674.0</ele>
        <time>2019-01-02T10:41:09Z</time>
      </trkpt>
      <trkpt lat="42.936235" lon="0.420618">
        <ele>1674.3</ele>
        <time>2019-01-02T10:41:17Z</time>
      </trkpt>
      <trkpt lat="42.936312" lon="0.420709">
        <ele>1674.2</ele>
        <time>2019-01-02T10:41:26Z</time>
      </trkpt>
      <trkpt lat="42.936384" lon="0.420780">
        <ele>1674.1</ele>
        <time>2019-01-02T10:41:34Z</time>
      </trkpt>
      <trkpt lat="42.936456" lon="0.420863">
        <ele>1674.2</ele>
        <time>2019-01-02T10:41:43Z</time>
      </trkpt>
      <trkpt lat="42.936525" lon="0.420944">
        <ele>1674.2</ele>
        <time>2019-01-02T10:41:51Z</time>
      </trkpt>
      <trkpt lat="42.936577" lon="0.421056">
        <ele>1674.5</ele>
        <time>2019-01-02T10:41:59Z</time>
      </trkpt>
      <trkpt lat="42.936631" lon="0.421162">
        <ele>1674.9</ele>
        <time>2019-01-02T10:42:07Z</time>
      </trkpt>
      <trkpt lat="42.936686" lon="0.421254">
        <ele>1675.1</ele>
        <time>2019-01-02T10:42:15Z</time>
      </trkpt>
      <trkpt lat="42.936735" lon="0.421362">
        <ele>1675.3</ele>
        <time>2019-01-02T10:42:23Z</time>
      </trkpt>
      <trkpt lat="42.936779" lon="0.421468">
        <ele>1675.5</ele>
        <time>2019-01-02T10:42:32Z</time>
      </trkpt>
      <trkpt lat="42.936820" lon="0.421586">
        <ele>1675.8</ele>
        <time>2019-01-02T10:42:41Z</time>
      </trkpt>
      <trkpt lat="42.936851" lon="0.421697">
        <ele>1676.2</ele>
        <time>2019-01-02T10:42:49Z</time>
      </trkpt>
      <trkpt lat="42.936952" lon="0.421792">
        <ele>1677.2</ele>
        <time>2019-01-02T10:47:50Z</time>
      </trkpt>
      <trkpt lat="42.937041" lon="0.421795">
        <ele>1676.9</ele>
        <time>2019-01-02T10:47:58Z</time>
      </trkpt>
      <trkpt lat="42.937148" lon="0.421789">
        <ele>1676.1</ele>
        <time>2019-01-02T10:48:27Z</time>
      </trkpt>
      <trkpt lat="42.937237" lon="0.421791">
        <ele>1676.6</ele>
        <time>2019-01-02T10:48:35Z</time>
      </trkpt>
      <trkpt lat="42.937326" lon="0.421803">
        <ele>1676.9</ele>
        <time>2019-01-02T10:48:49Z</time>
      </trkpt>
      <trkpt lat="42.937415" lon="0.421871">
        <ele>1677.4</ele>
        <time>2019-01-02T10:48:58Z</time>
      </trkpt>
      <trkpt lat="42.937507" lon="0.421920">
        <ele>1677.5</ele>
        <time>2019-01-02T10:49:07Z</time>
      </trkpt>
      <trkpt lat="42.937611" lon="0.421922">
        <ele>1677.8</ele>
        <time>2019-01-02T10:49:16Z</time>
      </trkpt>
      <trkpt lat="42.937705" lon="0.421904">
        <ele>1678.9</ele>
        <time>2019-01-02T10:49:28Z</time>
      </trkpt>
      <trkpt lat="42.937793" lon="0.421908">
        <ele>1679.4</ele>
        <time>2019-01-02T10:49:38Z</time>
      </trkpt>
      <trkpt lat="42.937884" lon="0.421906">
        <ele>1680.2</ele>
        <time>2019-01-02T10:49:48Z</time>
      </trkpt>
      <trkpt lat="42.937979" lon="0.421875">
        <ele>1681.8</ele>
        <time>2019-01-02T10:49:58Z</time>
      </trkpt>
      <trkpt lat="42.938063" lon="0.421847">
        <ele>1683.5</ele>
        <time>2019-01-02T10:50:09Z</time>
      </trkpt>
      <trkpt lat="42.938153" lon="0.421848">
        <ele>1686.5</ele>
        <time>2019-01-02T10:50:23Z</time>
      </trkpt>
      <trkpt lat="42.938239" lon="0.421859">
        <ele>1688.4</ele>
        <time>2019-01-02T10:50:35Z</time>
      </trkpt>
      <trkpt lat="42.938297" lon="0.421760">
        <ele>1691.4</ele>
        <time>2019-01-02T10:50:48Z</time>
      </trkpt>
      <trkpt lat="42.938379" lon="0.421696">
        <ele>1695.1</ele>
        <time>2019-01-02T10:51:04Z</time>
      </trkpt>
      <trkpt lat="42.938433" lon="0.421586">
        <ele>1698.3</ele>
        <time>2019-01-02T10:51:19Z</time>
      </trkpt>
      <trkpt lat="42.938420" lon="0.421440">
        <ele>1700.7</ele>
        <time>2019-01-02T10:51:33Z</time>
      </trkpt>
      <trkpt lat="42.938428" lon="0.421297">
        <ele>1703.2</ele>
        <time>2019-01-02T10:51:46Z</time>
      </trkpt>
      <trkpt lat="42.938404" lon="0.421152">
        <ele>1706.7</ele>
        <time>2019-01-02T10:52:02Z</time>
      </trkpt>
      <trkpt lat="42.938485" lon="0.421126">
        <ele>1710.6</ele>
        <time>2019-01-02T10:52:18Z</time>
      </trkpt>
      <trkpt lat="42.938500" lon="0.421022">
        <ele>1714.9</ele>
        <time>2019-01-02T10:52:39Z</time>
      </trkpt>
      <trkpt lat="42.938554" lon="0.420934">
        <ele>1718.7</ele>
        <time>2019-01-02T10:52:55Z</time>
      </trkpt>
      <trkpt lat="42.938617" lon="0.420871">
        <ele>1722.3</ele>
        <time>2019-01-02T10:53:09Z</time>
      </trkpt>
      <trkpt lat="42.938718" lon="0.420876">
        <ele>1726.2</ele>
        <time>2019-01-02T10:53:28Z</time>
      </trkpt>
      <trkpt lat="42.938756" lon="0.420796">
        <ele>1729.9</ele>
        <time>2019-01-02T10:53:45Z</time>
      </trkpt>
      <trkpt lat="42.938828" lon="0.420779">
        <ele>1733.9</ele>
        <time>2019-01-02T10:54:03Z</time>
      </trkpt>
      <trkpt lat="42.938898" lon="0.420764">
        <ele>1737.2</ele>
        <time>2019-01-02T10:54:19Z</time>
      </trkpt>
      <trkpt lat="42.938973" lon="0.420764">
        <ele>1741.4</ele>
        <time>2019-01-02T10:54:38Z</time>
      </trkpt>
      <trkpt lat="42.939023" lon="0.420729">
        <ele>1747.2</ele>
        <time>2019-01-02T10:55:32Z</time>
      </trkpt>
      <trkpt lat="42.939072" lon="0.420613">
        <ele>1748.4</ele>
        <time>2019-01-02T10:56:00Z</time>
      </trkpt>
      <trkpt lat="42.939143" lon="0.420582">
        <ele>1752.1</ele>
        <time>2019-01-02T10:56:14Z</time>
      </trkpt>
      <trkpt lat="42.939203" lon="0.420516">
        <ele>1758.6</ele>
        <time>2019-01-02T10:56:34Z</time>
      </trkpt>
      <trkpt lat="42.939271" lon="0.420443">
        <ele>1762.8</ele>
        <time>2019-01-02T10:56:53Z</time>
      </trkpt>
      <trkpt lat="42.939335" lon="0.420398">
        <ele>1767.1</ele>
        <time>2019-01-02T10:57:12Z</time>
      </trkpt>
      <trkpt lat="42.939410" lon="0.420344">
        <ele>1770.7</ele>
        <time>2019-01-02T10:57:30Z</time>
      </trkpt>
      <trkpt lat="42.939477" lon="0.420270">
        <ele>1776.4</ele>
        <time>2019-01-02T10:57:59Z</time>
      </trkpt>
      <trkpt lat="42.939547" lon="0.420247">
        <ele>1780.5</ele>
        <time>2019-01-02T10:58:19Z</time>
      </trkpt>
      <trkpt lat="42.939580" lon="0.420135">
        <ele>1784.8</ele>
        <time>2019-01-02T10:58:35Z</time>
      </trkpt>
      <trkpt lat="42.939635" lon="0.420029">
        <ele>1788.4</ele>
        <time>2019-01-02T10:58:48Z</time>
      </trkpt>
      <trkpt lat="42.939635" lon="0.419910">
        <ele>1792.4</ele>
        <time>2019-01-02T10:59:02Z</time>
      </trkpt>
      <trkpt lat="42.939673" lon="0.419779">
        <ele>1794.6</ele>
        <time>2019-01-02T10:59:13Z</time>
      </trkpt>
      <trkpt lat="42.939712" lon="0.419650">
        <ele>1796.1</ele>
        <time>2019-01-02T10:59:23Z</time>
      </trkpt>
      <trkpt lat="42.939761" lon="0.419546">
        <ele>1797.1</ele>
        <time>2019-01-02T10:59:32Z</time>
      </trkpt>
      <trkpt lat="42.939798" lon="0.419471">
        <ele>1798.7</ele>
        <time>2019-01-02T11:01:25Z</time>
      </trkpt>
      <trkpt lat="42.939801" lon="0.419489">
        <ele>1800.3</ele>
        <time>2019-01-02T11:11:59Z</time>
      </trkpt>
      <trkpt lat="42.939757" lon="0.419573">
        <ele>1799.8</ele>
        <time>2019-01-02T11:12:31Z</time>
      </trkpt>
      <trkpt lat="42.939675" lon="0.419648">
        <ele>1798.6</ele>
        <time>2019-01-02T11:12:42Z</time>
      </trkpt>
      <trkpt lat="42.939590" lon="0.419690">
        <ele>1795.3</ele>
        <time>2019-01-02T11:12:53Z</time>
      </trkpt>
      <trkpt lat="42.939528" lon="0.419781">
        <ele>1792.1</ele>
        <time>2019-01-02T11:14:19Z</time>
      </trkpt>
      <trkpt lat="42.939468" lon="0.419890">
        <ele>1791.1</ele>
        <time>2019-01-02T11:14:27Z</time>
      </trkpt>
      <trkpt lat="42.939389" lon="0.419943">
        <ele>1788.1</ele>
        <time>2019-01-02T11:14:37Z</time>
      </trkpt>
      <trkpt lat="42.939314" lon="0.419919">
        <ele>1784.3</ele>
        <time>2019-01-02T11:14:47Z</time>
      </trkpt>
      <trkpt lat="42.939226" lon="0.419936">
        <ele>1780.7</ele>
        <time>2019-01-02T11:14:58Z</time>
      </trkpt>
      <trkpt lat="42.939193" lon="0.419994">
        <ele>1775.8</ele>
        <time>2019-01-02T11:15:13Z</time>
      </trkpt>
      <trkpt lat="42.939156" lon="0.420084">
        <ele>1771.6</ele>
        <time>2019-01-02T11:15:28Z</time>
      </trkpt>
      <trkpt lat="42.939074" lon="0.420111">
        <ele>1766.9</ele>
        <time>2019-01-02T11:15:41Z</time>
      </trkpt>
      <trkpt lat="42.938979" lon="0.420124">
        <ele>1763.2</ele>
        <time>2019-01-02T11:15:51Z</time>
      </trkpt>
      <trkpt lat="42.938894" lon="0.420117">
        <ele>1759.0</ele>
        <time>2019-01-02T11:16:01Z</time>
      </trkpt>
      <trkpt lat="42.938806" lon="0.420138">
        <ele>1754.2</ele>
        <time>2019-01-02T11:16:18Z</time>
      </trkpt>
      <trkpt lat="42.938733" lon="0.420179">
        <ele>1749.1</ele>
        <time>2019-01-02T11:16:31Z</time>
      </trkpt>
      <trkpt lat="42.938667" lon="0.420179">
        <ele>1745.2</ele>
        <time>2019-01-02T11:16:46Z</time>
      </trkpt>
      <trkpt lat="42.938606" lon="0.420287">
        <ele>1741.3</ele>
        <time>2019-01-02T11:16:57Z</time>
      </trkpt>
      <trkpt lat="42.938525" lon="0.420341">
        <ele>1737.9</ele>
        <time>2019-01-02T11:17:09Z</time>
      </trkpt>
      <trkpt lat="42.938453" lon="0.420380">
        <ele>1733.9</ele>
        <time>2019-01-02T11:17:19Z</time>
      </trkpt>
      <trkpt lat="42.938373" lon="0.420441">
        <ele>1730.9</ele>
        <time>2019-01-02T11:17:30Z</time>
      </trkpt>
      <trkpt lat="42.938310" lon="0.420535">
        <ele>1727.1</ele>
        <time>2019-01-02T11:17:40Z</time>
      </trkpt>
      <trkpt lat="42.938230" lon="0.420598">
        <ele>1723.2</ele>
        <time>2019-01-02T11:17:50Z</time>
      </trkpt>
      <trkpt lat="42.938142" lon="0.420644">
        <ele>1719.2</ele>
        <time>2019-01-02T11:18:00Z</time>
      </trkpt>
      <trkpt lat="42.938059" lon="0.420688">
        <ele>1715.1</ele>
        <time>2019-01-02T11:18:10Z</time>
      </trkpt>
      <trkpt lat="42.937981" lon="0.420714">
        <ele>1710.1</ele>
        <time>2019-01-02T11:18:22Z</time>
      </trkpt>
      <trkpt lat="42.937925" lon="0.420786">
        <ele>1705.7</ele>
        <time>2019-01-02T11:18:32Z</time>
      </trkpt>
      <trkpt lat="42.937839" lon="0.420839">
        <ele>1700.3</ele>
        <time>2019-01-02T11:18:43Z</time>
      </trkpt>
      <trkpt lat="42.937774" lon="0.420905">
        <ele>1696.4</ele>
        <time>2019-01-02T11:18:52Z</time>
      </trkpt>
      <trkpt lat="42.937677" lon="0.420926">
        <ele>1691.4</ele>
        <time>2019-01-02T11:19:04Z</time>
      </trkpt>
      <trkpt lat="42.937583" lon="0.420954">
        <ele>1688.1</ele>
        <time>2019-01-02T11:19:14Z</time>
      </trkpt>
      <trkpt lat="42.937511" lon="0.421078">
        <ele>1684.6</ele>
        <time>2019-01-02T11:19:23Z</time>
      </trkpt>
      <trkpt lat="42.937443" lon="0.421163">
        <ele>1682.1</ele>
        <time>2019-01-02T11:19:31Z</time>
      </trkpt>
      <trkpt lat="42.937348" lon="0.421187">
        <ele>1680.1</ele>
        <time>2019-01-02T11:19:40Z</time>
      </trkpt>
      <trkpt lat="42.937251" lon="0.421195">
        <ele>1677.4</ele>
        <time>2019-01-02T11:19:49Z</time>
      </trkpt>
      <trkpt lat="42.937160" lon="0.421259">
        <ele>1674.9</ele>
        <time>2019-01-02T11:19:57Z</time>
      </trkpt>
      <trkpt lat="42.937100" lon="0.421356">
        <ele>1673.9</ele>
        <time>2019-01-02T11:20:04Z</time>
      </trkpt>
      <trkpt lat="42.937027" lon="0.421433">
        <ele>1673.7</ele>
        <time>2019-01-02T11:20:12Z</time>
      </trkpt>
      <trkpt lat="42.936959" lon="0.421541">
        <ele>1674.4</ele>
        <time>2019-01-02T11:20:21Z</time>
      </trkpt>
      <trkpt lat="42.936934" lon="0.421662">
        <ele>1676.2</ele>
        <time>2019-01-02T11:20:32Z</time>
      </trkpt>
      <trkpt lat="42.936883" lon="0.421749">
        <ele>1678.0</ele>
        <time>2019-01-02T11:20:45Z</time>
      </trkpt>
      <trkpt lat="42.936852" lon="0.421777">
        <ele>1679.4</ele>
        <time>2019-01-02T11:22:38Z</time>
      </trkpt>
      <trkpt lat="42.936758" lon="0.421829">
        <ele>1680.5</ele>
        <time>2019-01-02T11:22:49Z</time>
      </trkpt>
      <trkpt lat="42.936658" lon="0.421864">
        <ele>1681.6</ele>
        <time>2019-01-02T11:23:01Z</time>
      </trkpt>
      <trkpt lat="42.936550" lon="0.421896">
        <ele>1683.8</ele>
        <time>2019-01-02T11:23:14Z</time>
      </trkpt>
      <trkpt lat="42.936457" lon="0.421962">
        <ele>1685.2</ele>
        <time>2019-01-02T11:23:26Z</time>
      </trkpt>
      <trkpt lat="42.936358" lon="0.422068">
        <ele>1686.2</ele>
        <time>2019-01-02T11:23:35Z</time>
      </trkpt>
      <trkpt lat="42.936265" lon="0.422078">
        <ele>1687.6</ele>
        <time>2019-01-02T11:23:44Z</time>
      </trkpt>
      <trkpt lat="42.936175" lon="0.422096">
        <ele>1688.5</ele>
        <time>2019-01-02T11:23:52Z</time>
      </trkpt>
      <trkpt lat="42.936088" lon="0.422147">
        <ele>1688.1</ele>
        <time>2019-01-02T11:24:01Z</time>
      </trkpt>
      <trkpt lat="42.936004" lon="0.422221">
        <ele>1687.0</ele>
        <time>2019-01-02T11:24:10Z</time>
      </trkpt>
      <trkpt lat="42.935919" lon="0.422304">
        <ele>1685.2</ele>
        <time>2019-01-02T11:24:23Z</time>
      </trkpt>
      <trkpt lat="42.935835" lon="0.422370">
        <ele>1684.8</ele>
        <time>2019-01-02T11:24:38Z</time>
      </trkpt>
      <trkpt lat="42.935751" lon="0.422458">
        <ele>1684.7</ele>
        <time>2019-01-02T11:24:47Z</time>
      </trkpt>
      <trkpt lat="42.935668" lon="0.422538">
        <ele>1684.7</ele>
        <time>2019-01-02T11:24:56Z</time>
      </trkpt>
      <trkpt lat="42.935588" lon="0.422640">
        <ele>1684.8</ele>
        <time>2019-01-02T11:25:04Z</time>
      </trkpt>
      <trkpt lat="42.935505" lon="0.422708">
        <ele>1684.6</ele>
        <time>2019-01-02T11:25:11Z</time>
      </trkpt>
      <trkpt lat="42.935426" lon="0.422777">
        <ele>1684.7</ele>
        <time>2019-01-02T11:25:20Z</time>
      </trkpt>
      <trkpt lat="42.935352" lon="0.422884">
        <ele>1685.1</ele>
        <time>2019-01-02T11:25:29Z</time>
      </trkpt>
      <trkpt lat="42.935279" lon="0.422979">
        <ele>1684.9</ele>
        <time>2019-01-02T11:25:37Z</time>
      </trkpt>
      <trkpt lat="42.935231" lon="0.423103">
        <ele>1684.5</ele>
        <time>2019-01-02T11:25:45Z</time>
      </trkpt>
      <trkpt lat="42.935167" lon="0.423201">
        <ele>1685.1</ele>
        <time>2019-01-02T11:25:54Z</time>
      </trkpt>
      <trkpt lat="42.935099" lon="0.423286">
        <ele>1684.9</ele>
        <time>2019-01-02T11:26:02Z</time>
      </trkpt>
      <trkpt lat="42.935037" lon="0.423379">
        <ele>1684.9</ele>
        <time>2019-01-02T11:26:10Z</time>
      </trkpt>
      <trkpt lat="42.934975" lon="0.423476">
        <ele>1685.3</ele>
        <time>2019-01-02T11:26:18Z</time>
      </trkpt>
      <trkpt lat="42.934895" lon="0.423567">
        <ele>1685.5</ele>
        <time>2019-01-02T11:26:27Z</time>
      </trkpt>
      <trkpt lat="42.934820" lon="0.423661">
        <ele>1685.6</ele>
        <time>2019-01-02T11:26:36Z</time>
      </trkpt>
      <trkpt lat="42.934749" lon="0.423736">
        <ele>1685.5</ele>
        <time>2019-01-02T11:26:44Z</time>
      </trkpt>
      <trkpt lat="42.934665" lon="0.423810">
        <ele>1685.4</ele>
        <time>2019-01-02T11:26:53Z</time>
      </trkpt>
      <trkpt lat="42.934606" lon="0.423912">
        <ele>1685.3</ele>
        <time>2019-01-02T11:27:01Z</time>
      </trkpt>
      <trkpt lat="42.934555" lon="0.424022">
        <ele>1685.2</ele>
        <time>2019-01-02T11:27:09Z</time>
      </trkpt>
      <trkpt lat="42.934501" lon="0.424124">
        <ele>1684.4</ele>
        <time>2019-01-02T11:27:17Z</time>
      </trkpt>
      <trkpt lat="42.934444" lon="0.424252">
        <ele>1683.1</ele>
        <time>2019-01-02T11:27:26Z</time>
      </trkpt>
      <trkpt lat="42.934379" lon="0.424376">
        <ele>1681.9</ele>
        <time>2019-01-02T11:27:34Z</time>
      </trkpt>
      <trkpt lat="42.934330" lon="0.424482">
        <ele>1681.9</ele>
        <time>2019-01-02T11:27:41Z</time>
      </trkpt>
      <trkpt lat="42.934283" lon="0.424596">
        <ele>1681.8</ele>
        <time>2019-01-02T11:27:49Z</time>
      </trkpt>
      <trkpt lat="42.934232" lon="0.424716">
        <ele>1682.1</ele>
        <time>2019-01-02T11:27:58Z</time>
      </trkpt>
      <trkpt lat="42.934180" lon="0.424821">
        <ele>1682.3</ele>
        <time>2019-01-02T11:28:06Z</time>
      </trkpt>
      <trkpt lat="42.934132" lon="0.424938">
        <ele>1682.1</ele>
        <time>2019-01-02T11:28:15Z</time>
      </trkpt>
      <trkpt lat="42.934092" lon="0.425059">
        <ele>1682.1</ele>
        <time>2019-01-02T11:28:24Z</time>
      </trkpt>
      <trkpt lat="42.934062" lon="0.425195">
        <ele>1681.8</ele>
        <time>2019-01-02T11:28:32Z</time>
      </trkpt>
      <trkpt lat="42.934026" lon="0.425318">
        <ele>1681.4</ele>
        <time>2019-01-02T11:28:39Z</time>
      </trkpt>
      <trkpt lat="42.933970" lon="0.425437">
        <ele>1680.4</ele>
        <time>2019-01-02T11:28:48Z</time>
      </trkpt>
      <trkpt lat="42.933916" lon="0.425539">
        <ele>1679.1</ele>
        <time>2019-01-02T11:28:57Z</time>
      </trkpt>
      <trkpt lat="42.933847" lon="0.425606">
        <ele>1678.1</ele>
        <time>2019-01-02T11:29:03Z</time>
      </trkpt>
      <trkpt lat="42.933795" lon="0.425725">
        <ele>1677.0</ele>
        <time>2019-01-02T11:29:13Z</time>
      </trkpt>
      <trkpt lat="42.933747" lon="0.425843">
        <ele>1675.7</ele>
        <time>2019-01-02T11:29:22Z</time>
      </trkpt>
      <trkpt lat="42.933690" lon="0.425959">
        <ele>1674.8</ele>
        <time>2019-01-02T11:29:30Z</time>
      </trkpt>
      <trkpt lat="42.933612" lon="0.426046">
        <ele>1674.2</ele>
        <time>2019-01-02T11:29:39Z</time>
      </trkpt>
      <trkpt lat="42.933533" lon="0.426119">
        <ele>1673.5</ele>
        <time>2019-01-02T11:29:49Z</time>
      </trkpt>
      <trkpt lat="42.933477" lon="0.426227">
        <ele>1672.1</ele>
        <time>2019-01-02T11:29:59Z</time>
      </trkpt>
      <trkpt lat="42.933397" lon="0.426281">
        <ele>1669.7</ele>
        <time>2019-01-02T11:30:11Z</time>
      </trkpt>
      <trkpt lat="42.933335" lon="0.426370">
        <ele>1668.2</ele>
        <time>2019-01-02T11:30:20Z</time>
      </trkpt>
      <trkpt lat="42.933288" lon="0.426485">
        <ele>1666.7</ele>
        <time>2019-01-02T11:30:32Z</time>
      </trkpt>
      <trkpt lat="42.933253" lon="0.426613">
        <ele>1665.7</ele>
        <time>2019-01-02T11:30:44Z</time>
      </trkpt>
      <trkpt lat="42.933215" lon="0.426730">
        <ele>1665.5</ele>
        <time>2019-01-02T11:30:57Z</time>
      </trkpt>
      <trkpt lat="42.933190" lon="0.426855">
        <ele>1664.6</ele>
        <time>2019-01-02T11:31:10Z</time>
      </trkpt>
      <trkpt lat="42.933170" lon="0.426975">
        <ele>1664.4</ele>
        <time>2019-01-02T11:31:21Z</time>
      </trkpt>
      <trkpt lat="42.933137" lon="0.427086">
        <ele>1665.1</ele>
        <time>2019-01-02T11:31:35Z</time>
      </trkpt>
      <trkpt lat="42.933076" lon="0.427185">
        <ele>1663.5</ele>
        <time>2019-01-02T11:31:57Z</time>
      </trkpt>
      <trkpt lat="42.933015" lon="0.427295">
        <ele>1663.0</ele>
        <time>2019-01-02T11:32:07Z</time>
      </trkpt>
      <trkpt lat="42.932939" lon="0.427370">
        <ele>1662.4</ele>
        <time>2019-01-02T11:32:19Z</time>
      </trkpt>
      <trkpt lat="42.932839" lon="0.427455">
        <ele>1661.7</ele>
        <time>2019-01-02T11:32:32Z</time>
      </trkpt>
      <trkpt lat="42.932772" lon="0.427536">
        <ele>1660.4</ele>
        <time>2019-01-02T11:32:41Z</time>
      </trkpt>
      <trkpt lat="42.932679" lon="0.427600">
        <ele>1659.9</ele>
        <time>2019-01-02T11:32:51Z</time>
      </trkpt>
      <trkpt lat="42.932605" lon="0.427677">
        <ele>1659.0</ele>
        <time>2019-01-02T11:33:01Z</time>
      </trkpt>
      <trkpt lat="42.932508" lon="0.427711">
        <ele>1657.6</ele>
        <time>2019-01-02T11:33:16Z</time>
      </trkpt>
      <trkpt lat="42.932442" lon="0.427780">
        <ele>1657.0</ele>
        <time>2019-01-02T11:33:31Z</time>
      </trkpt>
      <trkpt lat="42.932463" lon="0.427914">
        <ele>1657.6</ele>
        <time>2019-01-02T11:33:44Z</time>
      </trkpt>
      <trkpt lat="42.932438" lon="0.428044">
        <ele>1657.1</ele>
        <time>2019-01-02T11:33:54Z</time>
      </trkpt>
      <trkpt lat="42.932400" lon="0.428169">
        <ele>1656.3</ele>
        <time>2019-01-02T11:34:05Z</time>
      </trkpt>
      <trkpt lat="42.932355" lon="0.428286">
        <ele>1655.9</ele>
        <time>2019-01-02T11:34:16Z</time>
      </trkpt>
      <trkpt lat="42.932341" lon="0.428418">
        <ele>1654.5</ele>
        <time>2019-01-02T11:34:27Z</time>
      </trkpt>
      <trkpt lat="42.932320" lon="0.428553">
        <ele>1653.3</ele>
        <time>2019-01-02T11:34:38Z</time>
      </trkpt>
      <trkpt lat="42.932308" lon="0.428656">
        <ele>1653.6</ele>
        <time>2019-01-02T11:34:56Z</time>
      </trkpt>
      <trkpt lat="42.932268" lon="0.428809">
        <ele>1651.8</ele>
        <time>2019-01-02T11:35:08Z</time>
      </trkpt>
      <trkpt lat="42.932234" lon="0.428937">
        <ele>1651.2</ele>
        <time>2019-01-02T11:35:17Z</time>
      </trkpt>
      <trkpt lat="42.932227" lon="0.429075">
        <ele>1650.1</ele>
        <time>2019-01-02T11:35:28Z</time>
      </trkpt>
      <trkpt lat="42.932180" lon="0.429196">
        <ele>1648.4</ele>
        <time>2019-01-02T11:35:40Z</time>
      </trkpt>
      <trkpt lat="42.932138" lon="0.429320">
        <ele>1647.1</ele>
        <time>2019-01-02T11:35:50Z</time>
      </trkpt>
      <trkpt lat="42.932099" lon="0.429447">
        <ele>1646.0</ele>
        <time>2019-01-02T11:36:01Z</time>
      </trkpt>
      <trkpt lat="42.932036" lon="0.429554">
        <ele>1645.4</ele>
        <time>2019-01-02T11:36:13Z</time>
      </trkpt>
      <trkpt lat="42.931955" lon="0.429671">
        <ele>1645.9</ele>
        <time>2019-01-02T11:36:26Z</time>
      </trkpt>
      <trkpt lat="42.931898" lon="0.429774">
        <ele>1646.4</ele>
        <time>2019-01-02T11:36:38Z</time>
      </trkpt>
      <trkpt lat="42.931824" lon="0.429836">
        <ele>1648.9</ele>
        <time>2019-01-02T11:36:55Z</time>
      </trkpt>
      <trkpt lat="42.931790" lon="0.429895">
        <ele>1651.2</ele>
        <time>2019-01-02T11:37:52Z</time>
      </trkpt>
      <trkpt lat="42.931742" lon="0.430003">
        <ele>1651.1</ele>
        <time>2019-01-02T11:38:04Z</time>
      </trkpt>
      <trkpt lat="42.931713" lon="0.430130">
        <ele>1652.0</ele>
        <time>2019-01-02T11:38:14Z</time>
      </trkpt>
      <trkpt lat="42.931686" lon="0.430253">
        <ele>1653.2</ele>
        <time>2019-01-02T11:38:24Z</time>
      </trkpt>
      <trkpt lat="42.931660" lon="0.430381">
        <ele>1653.6</ele>
        <time>2019-01-02T11:38:33Z</time>
      </trkpt>
      <trkpt lat="42.931636" lon="0.430517">
        <ele>1654.5</ele>
        <time>2019-01-02T11:38:44Z</time>
      </trkpt>
      <trkpt lat="42.931589" lon="0.430617">
        <ele>1656.4</ele>
        <time>2019-01-02T11:38:56Z</time>
      </trkpt>
      <trkpt lat="42.931578" lon="0.430742">
        <ele>1657.8</ele>
        <time>2019-01-02T11:39:06Z</time>
      </trkpt>
      <trkpt lat="42.931575" lon="0.430862">
        <ele>1657.8</ele>
        <time>2019-01-02T11:39:15Z</time>
      </trkpt>
      <trkpt lat="42.931552" lon="0.430945">
        <ele>1658.8</ele>
        <time>2019-01-02T11:39:57Z</time>
      </trkpt>
      <trkpt lat="42.931539" lon="0.431054">
        <ele>1658.7</ele>
        <time>2019-01-02T11:40:28Z</time>
      </trkpt>
      <trkpt lat="42.931514" lon="0.431201">
        <ele>1659.0</ele>
        <time>2019-01-02T11:40:40Z</time>
      </trkpt>
      <trkpt lat="42.931498" lon="0.431352">
        <ele>1659.0</ele>
        <time>2019-01-02T11:40:51Z</time>
      </trkpt>
      <trkpt lat="42.931482" lon="0.431478">
        <ele>1659.6</ele>
        <time>2019-01-02T11:41:03Z</time>
      </trkpt>
      <trkpt lat="42.931454" lon="0.431578">
        <ele>1660.9</ele>
        <time>2019-01-02T11:41:14Z</time>
      </trkpt>
      <trkpt lat="42.931367" lon="0.431646">
        <ele>1663.8</ele>
        <time>2019-01-02T11:41:31Z</time>
      </trkpt>
      <trkpt lat="42.931363" lon="0.431778">
        <ele>1666.2</ele>
        <time>2019-01-02T11:41:45Z</time>
      </trkpt>
      <trkpt lat="42.931364" lon="0.431904">
        <ele>1666.6</ele>
        <time>2019-01-02T11:41:55Z</time>
      </trkpt>
      <trkpt lat="42.931359" lon="0.432056">
        <ele>1667.5</ele>
        <time>2019-01-02T11:42:08Z</time>
      </trkpt>
      <trkpt lat="42.931339" lon="0.432188">
        <ele>1668.3</ele>
        <time>2019-01-02T11:42:18Z</time>
      </trkpt>
      <trkpt lat="42.931335" lon="0.432313">
        <ele>1669.4</ele>
        <time>2019-01-02T11:42:30Z</time>
      </trkpt>
      <trkpt lat="42.931324" lon="0.432440">
        <ele>1670.4</ele>
        <time>2019-01-02T11:42:40Z</time>
      </trkpt>
      <trkpt lat="42.931324" lon="0.432571">
        <ele>1671.1</ele>
        <time>2019-01-02T11:42:50Z</time>
      </trkpt>
      <trkpt lat="42.931331" lon="0.432690">
        <ele>1671.9</ele>
        <time>2019-01-02T11:43:01Z</time>
      </trkpt>
      <trkpt lat="42.931346" lon="0.432805">
        <ele>1672.6</ele>
        <time>2019-01-02T11:43:11Z</time>
      </trkpt>
      <trkpt lat="42.931312" lon="0.432928">
        <ele>1674.1</ele>
        <time>2019-01-02T11:43:22Z</time>
      </trkpt>
      <trkpt lat="42.931290" lon="0.433065">
        <ele>1675.2</ele>
        <time>2019-01-02T11:43:35Z</time>
      </trkpt>
      <trkpt lat="42.931292" lon="0.433160">
        <ele>1674.7</ele>
        <time>2019-01-02T11:44:21Z</time>
      </trkpt>
      <trkpt lat="42.931289" lon="0.433247">
        <ele>1675.0</ele>
        <time>2019-01-02T11:45:10Z</time>
      </trkpt>
      <trkpt lat="42.931309" lon="0.433368">
        <ele>1674.8</ele>
        <time>2019-01-02T11:45:19Z</time>
      </trkpt>
      <trkpt lat="42.931318" lon="0.433504">
        <ele>1674.5</ele>
        <time>2019-01-02T11:45:30Z</time>
      </trkpt>
      <trkpt lat="42.931333" lon="0.433631">
        <ele>1674.2</ele>
        <time>2019-01-02T11:45:41Z</time>
      </trkpt>
      <trkpt lat="42.931346" lon="0.433772">
        <ele>1673.7</ele>
        <time>2019-01-02T11:45:51Z</time>
      </trkpt>
      <trkpt lat="42.931360" lon="0.433891">
        <ele>1673.9</ele>
        <time>2019-01-02T11:46:01Z</time>
      </trkpt>
      <trkpt lat="42.931384" lon="0.434024">
        <ele>1674.6</ele>
        <time>2019-01-02T11:46:13Z</time>
      </trkpt>
      <trkpt lat="42.931397" lon="0.434154">
        <ele>1675.2</ele>
        <time>2019-01-02T11:46:24Z</time>
      </trkpt>
      <trkpt lat="42.931423" lon="0.434278">
        <ele>1676.8</ele>
        <time>2019-01-02T11:46:38Z</time>
      </trkpt>
      <trkpt lat="42.931424" lon="0.434425">
        <ele>1677.6</ele>
        <time>2019-01-02T11:46:49Z</time>
      </trkpt>
      <trkpt lat="42.931450" lon="0.434554">
        <ele>1678.2</ele>
        <time>2019-01-02T11:47:01Z</time>
      </trkpt>
      <trkpt lat="42.931455" lon="0.434683">
        <ele>1679.3</ele>
        <time>2019-01-02T11:47:13Z</time>
      </trkpt>
      <trkpt lat="42.931447" lon="0.434810">
        <ele>1680.6</ele>
        <time>2019-01-02T11:47:23Z</time>
      </trkpt>
      <trkpt lat="42.931475" lon="0.434943">
        <ele>1681.7</ele>
        <time>2019-01-02T11:47:34Z</time>
      </trkpt>
      <trkpt lat="42.931503" lon="0.435075">
        <ele>1682.7</ele>
        <time>2019-01-02T11:47:44Z</time>
      </trkpt>
      <trkpt lat="42.931521" lon="0.435190">
        <ele>1683.6</ele>
        <time>2019-01-02T11:47:54Z</time>
      </trkpt>
      <trkpt lat="42.931533" lon="0.435332">
        <ele>1685.4</ele>
        <time>2019-01-02T11:48:06Z</time>
      </trkpt>
      <trkpt lat="42.931559" lon="0.435472">
        <ele>1686.8</ele>
        <time>2019-01-02T11:48:16Z</time>
      </trkpt>
      <trkpt lat="42.931568" lon="0.435600">
        <ele>1688.5</ele>
        <time>2019-01-02T11:48:27Z</time>
      </trkpt>
      <trkpt lat="42.931531" lon="0.435732">
        <ele>1690.3</ele>
        <time>2019-01-02T11:48:38Z</time>
      </trkpt>
      <trkpt lat="42.931516" lon="0.435855">
        <ele>1691.6</ele>
        <time>2019-01-02T11:48:47Z</time>
      </trkpt>
      <trkpt lat="42.931507" lon="0.435979">
        <ele>1692.7</ele>
        <time>2019-01-02T11:48:57Z</time>
      </trkpt>
      <trkpt lat="42.931514" lon="0.436089">
        <ele>1693.1</ele>
        <time>2019-01-02T11:49:10Z</time>
      </trkpt>
      <trkpt lat="42.931546" lon="0.436157">
        <ele>1693.4</ele>
        <time>2019-01-02T11:49:49Z</time>
      </trkpt>
      <trkpt lat="42.931519" lon="0.436296">
        <ele>1693.7</ele>
        <time>2019-01-02T11:50:34Z</time>
      </trkpt>
      <trkpt lat="42.931521" lon="0.436400">
        <ele>1693.1</ele>
        <time>2019-01-02T11:50:57Z</time>
      </trkpt>
      <trkpt lat="42.931487" lon="0.436545">
        <ele>1692.8</ele>
        <time>2019-01-02T11:51:10Z</time>
      </trkpt>
      <trkpt lat="42.931419" lon="0.436632">
        <ele>1693.0</ele>
        <time>2019-01-02T11:51:27Z</time>
      </trkpt>
      <trkpt lat="42.931345" lon="0.436727">
        <ele>1692.7</ele>
        <time>2019-01-02T11:51:38Z</time>
      </trkpt>
      <trkpt lat="42.931273" lon="0.436843">
        <ele>1693.0</ele>
        <time>2019-01-02T11:51:49Z</time>
      </trkpt>
      <trkpt lat="42.931238" lon="0.436962">
        <ele>1694.2</ele>
        <time>2019-01-02T11:52:00Z</time>
      </trkpt>
      <trkpt lat="42.931215" lon="0.437080">
        <ele>1694.2</ele>
        <time>2019-01-02T11:52:09Z</time>
      </trkpt>
      <trkpt lat="42.931148" lon="0.437204">
        <ele>1693.5</ele>
        <time>2019-01-02T11:52:20Z</time>
      </trkpt>
      <trkpt lat="42.931132" lon="0.437331">
        <ele>1692.9</ele>
        <time>2019-01-02T11:52:29Z</time>
      </trkpt>
      <trkpt lat="42.931084" lon="0.437456">
        <ele>1692.6</ele>
        <time>2019-01-02T11:52:41Z</time>
      </trkpt>
      <trkpt lat="42.931036" lon="0.437573">
        <ele>1691.7</ele>
        <time>2019-01-02T11:52:50Z</time>
      </trkpt>
      <trkpt lat="42.930991" lon="0.437716">
        <ele>1690.5</ele>
        <time>2019-01-02T11:53:01Z</time>
      </trkpt>
      <trkpt lat="42.930965" lon="0.437842">
        <ele>1690.0</ele>
        <time>2019-01-02T11:53:09Z</time>
      </trkpt>
      <trkpt lat="42.930963" lon="0.437967">
        <ele>1689.2</ele>
        <time>2019-01-02T11:53:25Z</time>
      </trkpt>
      <trkpt lat="42.930979" lon="0.438110">
        <ele>1689.4</ele>
        <time>2019-01-02T11:53:35Z</time>
      </trkpt>
      <trkpt lat="42.930996" lon="0.438233">
        <ele>1689.9</ele>
        <time>2019-01-02T11:53:46Z</time>
      </trkpt>
      <trkpt lat="42.931006" lon="0.438365">
        <ele>1690.1</ele>
        <time>2019-01-02T11:53:57Z</time>
      </trkpt>
      <trkpt lat="42.931006" lon="0.438489">
        <ele>1690.7</ele>
        <time>2019-01-02T11:54:07Z</time>
      </trkpt>
      <trkpt lat="42.931008" lon="0.438628">
        <ele>1691.8</ele>
        <time>2019-01-02T11:54:17Z</time>
      </trkpt>
      <trkpt lat="42.931013" lon="0.438753">
        <ele>1693.5</ele>
        <time>2019-01-02T11:54:27Z</time>
      </trkpt>
      <trkpt lat="42.931006" lon="0.438884">
        <ele>1694.6</ele>
        <time>2019-01-02T11:54:37Z</time>
      </trkpt>
      <trkpt lat="42.930964" lon="0.439001">
        <ele>1695.5</ele>
        <time>2019-01-02T11:54:46Z</time>
      </trkpt>
      <trkpt lat="42.930919" lon="0.439103">
        <ele>1696.5</ele>
        <time>2019-01-02T11:54:55Z</time>
      </trkpt>
      <trkpt lat="42.930914" lon="0.439207">
        <ele>1696.8</ele>
        <time>2019-01-02T11:55:04Z</time>
      </trkpt>
      <trkpt lat="42.930945" lon="0.439305">
        <ele>1697.5</ele>
        <time>2019-01-02T11:55:13Z</time>
      </trkpt>
      <trkpt lat="42.930974" lon="0.439417">
        <ele>1698.4</ele>
        <time>2019-01-02T11:55:23Z</time>
      </trkpt>
      <trkpt lat="42.930986" lon="0.439532">
        <ele>1700.1</ele>
        <time>2019-01-02T11:55:35Z</time>
      </trkpt>
      <trkpt lat="42.931008" lon="0.439663">
        <ele>1701.5</ele>
        <time>2019-01-02T11:55:46Z</time>
      </trkpt>
      <trkpt lat="42.931031" lon="0.439781">
        <ele>1702.5</ele>
        <time>2019-01-02T11:55:57Z</time>
      </trkpt>
      <trkpt lat="42.931102" lon="0.439891">
        <ele>1703.0</ele>
        <time>2019-01-02T11:56:07Z</time>
      </trkpt>
      <trkpt lat="42.931177" lon="0.440020">
        <ele>1703.0</ele>
        <time>2019-01-02T11:56:17Z</time>
      </trkpt>
      <trkpt lat="42.931240" lon="0.440115">
        <ele>1703.0</ele>
        <time>2019-01-02T11:56:27Z</time>
      </trkpt>
      <trkpt lat="42.931274" lon="0.440231">
        <ele>1702.9</ele>
        <time>2019-01-02T11:56:36Z</time>
      </trkpt>
      <trkpt lat="42.931325" lon="0.440333">
        <ele>1702.5</ele>
        <time>2019-01-02T11:56:46Z</time>
      </trkpt>
      <trkpt lat="42.931387" lon="0.440403">
        <ele>1702.2</ele>
        <time>2019-01-02T11:56:56Z</time>
      </trkpt>
      <trkpt lat="42.931469" lon="0.440453">
        <ele>1702.6</ele>
        <time>2019-01-02T11:57:06Z</time>
      </trkpt>
      <trkpt lat="42.931561" lon="0.440511">
        <ele>1701.7</ele>
        <time>2019-01-02T11:57:18Z</time>
      </trkpt>
      <trkpt lat="42.931643" lon="0.440546">
        <ele>1699.8</ele>
        <time>2019-01-02T11:57:27Z</time>
      </trkpt>
      <trkpt lat="42.931696" lon="0.440650">
        <ele>1698.7</ele>
        <time>2019-01-02T11:57:38Z</time>
      </trkpt>
      <trkpt lat="42.931757" lon="0.440747">
        <ele>1699.1</ele>
        <time>2019-01-02T11:57:47Z</time>
      </trkpt>
      <trkpt lat="42.931833" lon="0.440805">
        <ele>1699.7</ele>
        <time>2019-01-02T11:57:54Z</time>
      </trkpt>
      <trkpt lat="42.931904" lon="0.440895">
        <ele>1701.5</ele>
        <time>2019-01-02T11:58:11Z</time>
      </trkpt>
      <trkpt lat="42.932015" lon="0.440943">
        <ele>1703.1</ele>
        <time>2019-01-02T11:58:23Z</time>
      </trkpt>
      <trkpt lat="42.932112" lon="0.441005">
        <ele>1704.7</ele>
        <time>2019-01-02T11:58:35Z</time>
      </trkpt>
      <trkpt lat="42.932199" lon="0.441074">
        <ele>1706.3</ele>
        <time>2019-01-02T11:58:48Z</time>
      </trkpt>
      <trkpt lat="42.932284" lon="0.441127">
        <ele>1707.6</ele>
        <time>2019-01-02T11:58:59Z</time>
      </trkpt>
      <trkpt lat="42.932362" lon="0.441228">
        <ele>1708.9</ele>
        <time>2019-01-02T11:59:12Z</time>
      </trkpt>
      <trkpt lat="42.932439" lon="0.441328">
        <ele>1710.2</ele>
        <time>2019-01-02T11:59:22Z</time>
      </trkpt>
      <trkpt lat="42.932499" lon="0.441439">
        <ele>1711.8</ele>
        <time>2019-01-02T11:59:33Z</time>
      </trkpt>
      <trkpt lat="42.932554" lon="0.441542">
        <ele>1713.2</ele>
        <time>2019-01-02T11:59:44Z</time>
      </trkpt>
      <trkpt lat="42.932600" lon="0.441666">
        <ele>1714.6</ele>
        <time>2019-01-02T11:59:57Z</time>
      </trkpt>
      <trkpt lat="42.932661" lon="0.441776">
        <ele>1715.4</ele>
        <time>2019-01-02T12:00:06Z</time>
      </trkpt>
      <trkpt lat="42.932718" lon="0.441882">
        <ele>1716.7</ele>
        <time>2019-01-02T12:00:16Z</time>
      </trkpt>
      <trkpt lat="42.932778" lon="0.441967">
        <ele>1718.2</ele>
        <time>2019-01-02T12:00:28Z</time>
      </trkpt>
      <trkpt lat="42.932852" lon="0.442052">
        <ele>1719.6</ele>
        <time>2019-01-02T12:00:38Z</time>
      </trkpt>
      <trkpt lat="42.932925" lon="0.442135">
        <ele>1722.1</ele>
        <time>2019-01-02T12:00:48Z</time>
      </trkpt>
      <trkpt lat="42.932995" lon="0.442215">
        <ele>1723.2</ele>
        <time>2019-01-02T12:00:58Z</time>
      </trkpt>
      <trkpt lat="42.933051" lon="0.442313">
        <ele>1724.1</ele>
        <time>2019-01-02T12:01:09Z</time>
      </trkpt>
      <trkpt lat="42.933101" lon="0.442408">
        <ele>1725.7</ele>
        <time>2019-01-02T12:01:20Z</time>
      </trkpt>
      <trkpt lat="42.933153" lon="0.442512">
        <ele>1728.6</ele>
        <time>2019-01-02T12:01:33Z</time>
      </trkpt>
      <trkpt lat="42.933225" lon="0.442605">
        <ele>1731.1</ele>
        <time>2019-01-02T12:01:46Z</time>
      </trkpt>
      <trkpt lat="42.933298" lon="0.442691">
        <ele>1732.6</ele>
        <time>2019-01-02T12:01:56Z</time>
      </trkpt>
      <trkpt lat="42.933379" lon="0.442790">
        <ele>1734.8</ele>
        <time>2019-01-02T12:02:08Z</time>
      </trkpt>
      <trkpt lat="42.933413" lon="0.442925">
        <ele>1737.6</ele>
        <time>2019-01-02T12:02:22Z</time>
      </trkpt>
      <trkpt lat="42.933460" lon="0.443040">
        <ele>1739.5</ele>
        <time>2019-01-02T12:02:33Z</time>
      </trkpt>
      <trkpt lat="42.933504" lon="0.443162">
        <ele>1741.3</ele>
        <time>2019-01-02T12:02:46Z</time>
      </trkpt>
      <trkpt lat="42.933521" lon="0.443274">
        <ele>1743.5</ele>
        <time>2019-01-02T12:03:06Z</time>
      </trkpt>
      <trkpt lat="42.933539" lon="0.443396">
        <ele>1745.3</ele>
        <time>2019-01-02T12:03:19Z</time>
      </trkpt>
      <trkpt lat="42.933585" lon="0.443508">
        <ele>1746.7</ele>
        <time>2019-01-02T12:03:30Z</time>
      </trkpt>
      <trkpt lat="42.933606" lon="0.443638">
        <ele>1748.2</ele>
        <time>2019-01-02T12:03:41Z</time>
      </trkpt>
      <trkpt lat="42.933664" lon="0.443740">
        <ele>1750.2</ele>
        <time>2019-01-02T12:03:53Z</time>
      </trkpt>
      <trkpt lat="42.933744" lon="0.443812">
        <ele>1752.1</ele>
        <time>2019-01-02T12:04:06Z</time>
      </trkpt>
      <trkpt lat="42.933802" lon="0.443898">
        <ele>1754.9</ele>
        <time>2019-01-02T12:04:19Z</time>
      </trkpt>
      <trkpt lat="42.933856" lon="0.443997">
        <ele>1756.6</ele>
        <time>2019-01-02T12:04:31Z</time>
      </trkpt>
      <trkpt lat="42.933929" lon="0.444081">
        <ele>1760.0</ele>
        <time>2019-01-02T12:04:48Z</time>
      </trkpt>
      <trkpt lat="42.933999" lon="0.444165">
        <ele>1762.4</ele>
        <time>2019-01-02T12:05:03Z</time>
      </trkpt>
      <trkpt lat="42.934080" lon="0.444255">
        <ele>1765.2</ele>
        <time>2019-01-02T12:05:19Z</time>
      </trkpt>
      <trkpt lat="42.934160" lon="0.444336">
        <ele>1767.9</ele>
        <time>2019-01-02T12:05:35Z</time>
      </trkpt>
      <trkpt lat="42.934243" lon="0.444422">
        <ele>1770.8</ele>
        <time>2019-01-02T12:05:51Z</time>
      </trkpt>
      <trkpt lat="42.934312" lon="0.444509">
        <ele>1773.6</ele>
        <time>2019-01-02T12:06:07Z</time>
      </trkpt>
      <trkpt lat="42.934396" lon="0.444594">
        <ele>1777.2</ele>
        <time>2019-01-02T12:06:26Z</time>
      </trkpt>
      <trkpt lat="42.934447" lon="0.444669">
        <ele>1781.8</ele>
        <time>2019-01-02T12:07:12Z</time>
      </trkpt>
      <trkpt lat="42.934502" lon="0.444743">
        <ele>1785.3</ele>
        <time>2019-01-02T12:07:30Z</time>
      </trkpt>
      <trkpt lat="42.934790" lon="0.445085">
        <ele>1808.4</ele>
        <time>2019-01-02T12:09:32Z</time>
      </trkpt>
      <trkpt lat="42.934838" lon="0.445157">
        <ele>1812.9</ele>
        <time>2019-01-02T12:09:56Z</time>
      </trkpt>
      <trkpt lat="42.934869" lon="0.445292">
        <ele>1816.7</ele>
        <time>2019-01-02T12:10:16Z</time>
      </trkpt>
      <trkpt lat="42.934891" lon="0.445395">
        <ele>1820.9</ele>
        <time>2019-01-02T12:10:38Z</time>
      </trkpt>
      <trkpt lat="42.934918" lon="0.445503">
        <ele>1825.8</ele>
        <time>2019-01-02T12:11:11Z</time>
      </trkpt>
      <trkpt lat="42.934941" lon="0.445616">
        <ele>1830.4</ele>
        <time>2019-01-02T12:11:38Z</time>
      </trkpt>
      <trkpt lat="42.934982" lon="0.445716">
        <ele>1834.1</ele>
        <time>2019-01-02T12:12:02Z</time>
      </trkpt>
      <trkpt lat="42.935004" lon="0.445819">
        <ele>1837.6</ele>
        <time>2019-01-02T12:12:29Z</time>
      </trkpt>
      <trkpt lat="42.935031" lon="0.445923">
        <ele>1841.1</ele>
        <time>2019-01-02T12:12:50Z</time>
      </trkpt>
      <trkpt lat="42.935063" lon="0.446017">
        <ele>1845.7</ele>
        <time>2019-01-02T12:13:14Z</time>
      </trkpt>
      <trkpt lat="42.935079" lon="0.446131">
        <ele>1849.5</ele>
        <time>2019-01-02T12:13:34Z</time>
      </trkpt>
      <trkpt lat="42.935087" lon="0.446217">
        <ele>1852.3</ele>
        <time>2019-01-02T12:14:03Z</time>
      </trkpt>
      <trkpt lat="42.935162" lon="0.446310">
        <ele>1861.7</ele>
        <time>2019-01-02T12:14:52Z</time>
      </trkpt>
      <trkpt lat="42.935198" lon="0.446391">
        <ele>1865.4</ele>
        <time>2019-01-02T12:15:13Z</time>
      </trkpt>
      <trkpt lat="42.935243" lon="0.446481">
        <ele>1870.7</ele>
        <time>2019-01-02T12:15:38Z</time>
      </trkpt>
      <trkpt lat="42.935306" lon="0.446524">
        <ele>1874.4</ele>
        <time>2019-01-02T12:15:59Z</time>
      </trkpt>
      <trkpt lat="42.935281" lon="0.446661">
        <ele>1876.2</ele>
        <time>2019-01-02T12:16:14Z</time>
      </trkpt>
      <trkpt lat="42.935266" lon="0.446796">
        <ele>1878.0</ele>
        <time>2019-01-02T12:16:27Z</time>
      </trkpt>
      <trkpt lat="42.935276" lon="0.446928">
        <ele>1880.4</ele>
        <time>2019-01-02T12:16:42Z</time>
      </trkpt>
      <trkpt lat="42.935283" lon="0.447053">
        <ele>1882.8</ele>
        <time>2019-01-02T12:16:54Z</time>
      </trkpt>
      <trkpt lat="42.935300" lon="0.447184">
        <ele>1884.2</ele>
        <time>2019-01-02T12:17:06Z</time>
      </trkpt>
      <trkpt lat="42.935284" lon="0.447323">
        <ele>1864.2</ele>
        <time>2019-01-02T12:26:30Z</time>
      </trkpt>
      <trkpt lat="42.935293" lon="0.447252">
        <ele>1864.4</ele>
        <time>2019-01-02T12:26:37Z</time>
      </trkpt>
      <trkpt lat="42.935305" lon="0.447155">
        <ele>1888.0</ele>
        <time>2019-01-02T13:44:47Z</time>
      </trkpt>
      <trkpt lat="42.935281" lon="0.447029">
        <ele>1887.5</ele>
        <time>2019-01-02T13:44:55Z</time>
      </trkpt>
      <trkpt lat="42.935283" lon="0.446881">
        <ele>1886.2</ele>
        <time>2019-01-02T13:45:34Z</time>
      </trkpt>
      <trkpt lat="42.935275" lon="0.446741">
        <ele>1884.1</ele>
        <time>2019-01-02T13:45:42Z</time>
      </trkpt>
      <trkpt lat="42.935297" lon="0.446618">
        <ele>1882.1</ele>
        <time>2019-01-02T13:45:49Z</time>
      </trkpt>
      <trkpt lat="42.935316" lon="0.446500">
        <ele>1879.5</ele>
        <time>2019-01-02T13:45:58Z</time>
      </trkpt>
      <trkpt lat="42.935315" lon="0.446374">
        <ele>1876.7</ele>
        <time>2019-01-02T13:46:10Z</time>
      </trkpt>
      <trkpt lat="42.935166" lon="0.446161">
        <ele>1865.0</ele>
        <time>2019-01-02T13:46:50Z</time>
      </trkpt>
      <trkpt lat="42.935127" lon="0.446021">
        <ele>1860.7</ele>
        <time>2019-01-02T13:47:03Z</time>
      </trkpt>
      <trkpt lat="42.935091" lon="0.445887">
        <ele>1855.1</ele>
        <time>2019-01-02T13:47:15Z</time>
      </trkpt>
      <trkpt lat="42.935077" lon="0.445760">
        <ele>1850.1</ele>
        <time>2019-01-02T13:47:26Z</time>
      </trkpt>
      <trkpt lat="42.934925" lon="0.445570">
        <ele>1834.9</ele>
        <time>2019-01-02T13:48:39Z</time>
      </trkpt>
      <trkpt lat="42.934906" lon="0.445449">
        <ele>1830.3</ele>
        <time>2019-01-02T13:49:03Z</time>
      </trkpt>
      <trkpt lat="42.934878" lon="0.445331">
        <ele>1825.8</ele>
        <time>2019-01-02T13:49:24Z</time>
      </trkpt>
      <trkpt lat="42.934861" lon="0.445193">
        <ele>1821.3</ele>
        <time>2019-01-02T13:49:36Z</time>
      </trkpt>
      <trkpt lat="42.934859" lon="0.445066">
        <ele>1817.0</ele>
        <time>2019-01-02T13:49:49Z</time>
      </trkpt>
      <trkpt lat="42.934814" lon="0.445003">
        <ele>1812.6</ele>
        <time>2019-01-02T13:50:04Z</time>
      </trkpt>
      <trkpt lat="42.934758" lon="0.444913">
        <ele>1809.6</ele>
        <time>2019-01-02T13:50:15Z</time>
      </trkpt>
      <trkpt lat="42.934672" lon="0.444884">
        <ele>1805.5</ele>
        <time>2019-01-02T13:50:27Z</time>
      </trkpt>
      <trkpt lat="42.934640" lon="0.444823">
        <ele>1800.9</ele>
        <time>2019-01-02T13:50:43Z</time>
      </trkpt>
      <trkpt lat="42.934595" lon="0.444753">
        <ele>1796.5</ele>
        <time>2019-01-02T13:50:57Z</time>
      </trkpt>
      <trkpt lat="42.934538" lon="0.444729">
        <ele>1792.4</ele>
        <time>2019-01-02T13:51:08Z</time>
      </trkpt>
      <trkpt lat="42.934463" lon="0.444609">
        <ele>1787.4</ele>
        <time>2019-01-02T13:51:24Z</time>
      </trkpt>
      <trkpt lat="42.934396" lon="0.444506">
        <ele>1784.1</ele>
        <time>2019-01-02T13:51:31Z</time>
      </trkpt>
      <trkpt lat="42.934342" lon="0.444383">
        <ele>1780.4</ele>
        <time>2019-01-02T13:51:39Z</time>
      </trkpt>
      <trkpt lat="42.934260" lon="0.444305">
        <ele>1776.3</ele>
        <time>2019-01-02T13:51:47Z</time>
      </trkpt>
      <trkpt lat="42.934195" lon="0.444208">
        <ele>1773.1</ele>
        <time>2019-01-02T13:51:55Z</time>
      </trkpt>
      <trkpt lat="42.934111" lon="0.444160">
        <ele>1770.5</ele>
        <time>2019-01-02T13:52:03Z</time>
      </trkpt>
      <trkpt lat="42.934048" lon="0.444060">
        <ele>1767.0</ele>
        <time>2019-01-02T13:52:34Z</time>
      </trkpt>
      <trkpt lat="42.933977" lon="0.443982">
        <ele>1765.1</ele>
        <time>2019-01-02T13:52:47Z</time>
      </trkpt>
      <trkpt lat="42.933924" lon="0.443878">
        <ele>1763.5</ele>
        <time>2019-01-02T13:52:57Z</time>
      </trkpt>
      <trkpt lat="42.933865" lon="0.443776">
        <ele>1761.2</ele>
        <time>2019-01-02T13:53:11Z</time>
      </trkpt>
      <trkpt lat="42.933864" lon="0.443715">
        <ele>1758.9</ele>
        <time>2019-01-02T13:54:21Z</time>
      </trkpt>
      <trkpt lat="42.933794" lon="0.443640">
        <ele>1757.9</ele>
        <time>2019-01-02T13:55:40Z</time>
      </trkpt>
      <trkpt lat="42.933741" lon="0.443538">
        <ele>1755.9</ele>
        <time>2019-01-02T13:55:50Z</time>
      </trkpt>
      <trkpt lat="42.933690" lon="0.443444">
        <ele>1753.3</ele>
        <time>2019-01-02T13:56:00Z</time>
      </trkpt>
      <trkpt lat="42.933623" lon="0.443343">
        <ele>1750.4</ele>
        <time>2019-01-02T13:56:10Z</time>
      </trkpt>
      <trkpt lat="42.933571" lon="0.443241">
        <ele>1748.2</ele>
        <time>2019-01-02T13:56:19Z</time>
      </trkpt>
      <trkpt lat="42.933507" lon="0.443148">
        <ele>1746.3</ele>
        <time>2019-01-02T13:56:27Z</time>
      </trkpt>
      <trkpt lat="42.933455" lon="0.443025">
        <ele>1744.8</ele>
        <time>2019-01-02T13:56:35Z</time>
      </trkpt>
      <trkpt lat="42.933409" lon="0.442912">
        <ele>1743.0</ele>
        <time>2019-01-02T13:56:44Z</time>
      </trkpt>
      <trkpt lat="42.933357" lon="0.442804">
        <ele>1741.1</ele>
        <time>2019-01-02T13:56:53Z</time>
      </trkpt>
      <trkpt lat="42.933290" lon="0.442702">
        <ele>1738.6</ele>
        <time>2019-01-02T13:57:02Z</time>
      </trkpt>
      <trkpt lat="42.933215" lon="0.442613">
        <ele>1736.7</ele>
        <time>2019-01-02T13:57:10Z</time>
      </trkpt>
      <trkpt lat="42.933148" lon="0.442516">
        <ele>1735.3</ele>
        <time>2019-01-02T13:57:17Z</time>
      </trkpt>
      <trkpt lat="42.933075" lon="0.442440">
        <ele>1733.1</ele>
        <time>2019-01-02T13:57:24Z</time>
      </trkpt>
      <trkpt lat="42.933015" lon="0.442331">
        <ele>1731.5</ele>
        <time>2019-01-02T13:57:32Z</time>
      </trkpt>
      <trkpt lat="42.932959" lon="0.442243">
        <ele>1729.6</ele>
        <time>2019-01-02T13:57:42Z</time>
      </trkpt>
      <trkpt lat="42.932916" lon="0.442143">
        <ele>1727.0</ele>
        <time>2019-01-02T13:57:53Z</time>
      </trkpt>
      <trkpt lat="42.932860" lon="0.442053">
        <ele>1725.3</ele>
        <time>2019-01-02T13:58:01Z</time>
      </trkpt>
      <trkpt lat="42.932792" lon="0.441959">
        <ele>1723.8</ele>
        <time>2019-01-02T13:58:09Z</time>
      </trkpt>
      <trkpt lat="42.932721" lon="0.441871">
        <ele>1722.2</ele>
        <time>2019-01-02T13:58:16Z</time>
      </trkpt>
      <trkpt lat="42.932662" lon="0.441772">
        <ele>1720.9</ele>
        <time>2019-01-02T13:58:24Z</time>
      </trkpt>
      <trkpt lat="42.932610" lon="0.441664">
        <ele>1719.4</ele>
        <time>2019-01-02T13:58:32Z</time>
      </trkpt>
      <trkpt lat="42.932557" lon="0.441560">
        <ele>1718.2</ele>
        <time>2019-01-02T13:58:39Z</time>
      </trkpt>
      <trkpt lat="42.932497" lon="0.441446">
        <ele>1717.2</ele>
        <time>2019-01-02T13:58:47Z</time>
      </trkpt>
      <trkpt lat="42.932442" lon="0.441324">
        <ele>1716.3</ele>
        <time>2019-01-02T13:58:56Z</time>
      </trkpt>
      <trkpt lat="42.932385" lon="0.441228">
        <ele>1714.9</ele>
        <time>2019-01-02T13:59:05Z</time>
      </trkpt>
      <trkpt lat="42.932319" lon="0.441137">
        <ele>1713.1</ele>
        <time>2019-01-02T13:59:15Z</time>
      </trkpt>
      <trkpt lat="42.932241" lon="0.441075">
        <ele>1711.8</ele>
        <time>2019-01-02T13:59:23Z</time>
      </trkpt>
      <trkpt lat="42.932156" lon="0.441024">
        <ele>1710.0</ele>
        <time>2019-01-02T13:59:32Z</time>
      </trkpt>
      <trkpt lat="42.932068" lon="0.440976">
        <ele>1708.8</ele>
        <time>2019-01-02T13:59:41Z</time>
      </trkpt>
      <trkpt lat="42.931989" lon="0.440918">
        <ele>1707.1</ele>
        <time>2019-01-02T13:59:51Z</time>
      </trkpt>
      <trkpt lat="42.931902" lon="0.440876">
        <ele>1705.9</ele>
        <time>2019-01-02T13:59:59Z</time>
      </trkpt>
      <trkpt lat="42.931820" lon="0.440815">
        <ele>1704.5</ele>
        <time>2019-01-02T14:00:09Z</time>
      </trkpt>
      <trkpt lat="42.931738" lon="0.440753">
        <ele>1703.3</ele>
        <time>2019-01-02T14:00:17Z</time>
      </trkpt>
      <trkpt lat="42.931664" lon="0.440664">
        <ele>1702.6</ele>
        <time>2019-01-02T14:00:24Z</time>
      </trkpt>
      <trkpt lat="42.931607" lon="0.440560">
        <ele>1702.0</ele>
        <time>2019-01-02T14:00:31Z</time>
      </trkpt>
      <trkpt lat="42.931548" lon="0.440430">
        <ele>1701.7</ele>
        <time>2019-01-02T14:00:39Z</time>
      </trkpt>
      <trkpt lat="42.931506" lon="0.440311">
        <ele>1701.5</ele>
        <time>2019-01-02T14:00:46Z</time>
      </trkpt>
      <trkpt lat="42.931445" lon="0.440209">
        <ele>1701.1</ele>
        <time>2019-01-02T14:00:54Z</time>
      </trkpt>
      <trkpt lat="42.931339" lon="0.440179">
        <ele>1700.2</ele>
        <time>2019-01-02T14:01:05Z</time>
      </trkpt>
      <trkpt lat="42.931337" lon="0.440010">
        <ele>1699.6</ele>
        <time>2019-01-02T14:01:19Z</time>
      </trkpt>
      <trkpt lat="42.931317" lon="0.439861">
        <ele>1699.6</ele>
        <time>2019-01-02T14:01:29Z</time>
      </trkpt>
      <trkpt lat="42.931314" lon="0.439726">
        <ele>1698.4</ele>
        <time>2019-01-02T14:01:38Z</time>
      </trkpt>
      <trkpt lat="42.931313" lon="0.439605">
        <ele>1696.5</ele>
        <time>2019-01-02T14:01:48Z</time>
      </trkpt>
      <trkpt lat="42.931283" lon="0.439490">
        <ele>1695.3</ele>
        <time>2019-01-02T14:01:59Z</time>
      </trkpt>
      <trkpt lat="42.931255" lon="0.439356">
        <ele>1694.2</ele>
        <time>2019-01-02T14:02:08Z</time>
      </trkpt>
      <trkpt lat="42.931248" lon="0.439236">
        <ele>1693.4</ele>
        <time>2019-01-02T14:02:16Z</time>
      </trkpt>
      <trkpt lat="42.931217" lon="0.439124">
        <ele>1692.7</ele>
        <time>2019-01-02T14:02:24Z</time>
      </trkpt>
      <trkpt lat="42.931173" lon="0.439009">
        <ele>1691.8</ele>
        <time>2019-01-02T14:02:32Z</time>
      </trkpt>
      <trkpt lat="42.931151" lon="0.438886">
        <ele>1691.3</ele>
        <time>2019-01-02T14:02:40Z</time>
      </trkpt>
      <trkpt lat="42.931142" lon="0.438762">
        <ele>1690.4</ele>
        <time>2019-01-02T14:02:50Z</time>
      </trkpt>
      <trkpt lat="42.931128" lon="0.438639">
        <ele>1690.0</ele>
        <time>2019-01-02T14:02:59Z</time>
      </trkpt>
      <trkpt lat="42.931111" lon="0.438517">
        <ele>1690.5</ele>
        <time>2019-01-02T14:03:10Z</time>
      </trkpt>
      <trkpt lat="42.931068" lon="0.438387">
        <ele>1690.9</ele>
        <time>2019-01-02T14:03:20Z</time>
      </trkpt>
      <trkpt lat="42.931026" lon="0.438289">
        <ele>1691.7</ele>
        <time>2019-01-02T14:03:29Z</time>
      </trkpt>
      <trkpt lat="42.930991" lon="0.438171">
        <ele>1692.7</ele>
        <time>2019-01-02T14:03:37Z</time>
      </trkpt>
      <trkpt lat="42.930986" lon="0.438039">
        <ele>1693.5</ele>
        <time>2019-01-02T14:03:45Z</time>
      </trkpt>
      <trkpt lat="42.930985" lon="0.437906">
        <ele>1693.9</ele>
        <time>2019-01-02T14:03:53Z</time>
      </trkpt>
      <trkpt lat="42.931004" lon="0.437794">
        <ele>1693.5</ele>
        <time>2019-01-02T14:04:00Z</time>
      </trkpt>
      <trkpt lat="42.931034" lon="0.437686">
        <ele>1693.4</ele>
        <time>2019-01-02T14:04:08Z</time>
      </trkpt>
      <trkpt lat="42.931059" lon="0.437573">
        <ele>1694.0</ele>
        <time>2019-01-02T14:04:16Z</time>
      </trkpt>
      <trkpt lat="42.931109" lon="0.437461">
        <ele>1694.9</ele>
        <time>2019-01-02T14:04:25Z</time>
      </trkpt>
      <trkpt lat="42.931147" lon="0.437343">
        <ele>1696.0</ele>
        <time>2019-01-02T14:04:33Z</time>
      </trkpt>
      <trkpt lat="42.931180" lon="0.437216">
        <ele>1696.9</ele>
        <time>2019-01-02T14:04:41Z</time>
      </trkpt>
      <trkpt lat="42.931206" lon="0.437111">
        <ele>1697.5</ele>
        <time>2019-01-02T14:04:48Z</time>
      </trkpt>
      <trkpt lat="42.931231" lon="0.436992">
        <ele>1698.6</ele>
        <time>2019-01-02T14:04:57Z</time>
      </trkpt>
      <trkpt lat="42.931239" lon="0.436856">
        <ele>1699.1</ele>
        <time>2019-01-02T14:05:05Z</time>
      </trkpt>
      <trkpt lat="42.931255" lon="0.436727">
        <ele>1699.0</ele>
        <time>2019-01-02T14:05:12Z</time>
      </trkpt>
      <trkpt lat="42.931283" lon="0.436616">
        <ele>1698.6</ele>
        <time>2019-01-02T14:05:19Z</time>
      </trkpt>
      <trkpt lat="42.931325" lon="0.436492">
        <ele>1698.2</ele>
        <time>2019-01-02T14:05:26Z</time>
      </trkpt>
      <trkpt lat="42.931362" lon="0.436378">
        <ele>1698.0</ele>
        <time>2019-01-02T14:05:33Z</time>
      </trkpt>
      <trkpt lat="42.931406" lon="0.436281">
        <ele>1698.0</ele>
        <time>2019-01-02T14:05:40Z</time>
      </trkpt>
      <trkpt lat="42.931450" lon="0.436176">
        <ele>1698.4</ele>
        <time>2019-01-02T14:05:48Z</time>
      </trkpt>
      <trkpt lat="42.931489" lon="0.436053">
        <ele>1698.6</ele>
        <time>2019-01-02T14:05:56Z</time>
      </trkpt>
      <trkpt lat="42.931503" lon="0.435928">
        <ele>1698.6</ele>
        <time>2019-01-02T14:06:03Z</time>
      </trkpt>
      <trkpt lat="42.931530" lon="0.435821">
        <ele>1698.4</ele>
        <time>2019-01-02T14:06:11Z</time>
      </trkpt>
      <trkpt lat="42.931526" lon="0.435689">
        <ele>1697.6</ele>
        <time>2019-01-02T14:06:19Z</time>
      </trkpt>
      <trkpt lat="42.931528" lon="0.435576">
        <ele>1697.0</ele>
        <time>2019-01-02T14:06:28Z</time>
      </trkpt>
      <trkpt lat="42.931520" lon="0.435455">
        <ele>1696.6</ele>
        <time>2019-01-02T14:06:36Z</time>
      </trkpt>
      <trkpt lat="42.931543" lon="0.435352">
        <ele>1693.8</ele>
        <time>2019-01-02T14:06:49Z</time>
      </trkpt>
      <trkpt lat="42.931522" lon="0.435217">
        <ele>1692.3</ele>
        <time>2019-01-02T14:06:58Z</time>
      </trkpt>
      <trkpt lat="42.931506" lon="0.435090">
        <ele>1690.5</ele>
        <time>2019-01-02T14:07:07Z</time>
      </trkpt>
      <trkpt lat="42.931486" lon="0.434965">
        <ele>1689.2</ele>
        <time>2019-01-02T14:07:16Z</time>
      </trkpt>
      <trkpt lat="42.931473" lon="0.434846">
        <ele>1688.2</ele>
        <time>2019-01-02T14:07:25Z</time>
      </trkpt>
      <trkpt lat="42.931473" lon="0.434724">
        <ele>1686.9</ele>
        <time>2019-01-02T14:07:36Z</time>
      </trkpt>
      <trkpt lat="42.931474" lon="0.434601">
        <ele>1685.6</ele>
        <time>2019-01-02T14:07:46Z</time>
      </trkpt>
      <trkpt lat="42.931456" lon="0.434500">
        <ele>1684.4</ele>
        <time>2019-01-02T14:07:56Z</time>
      </trkpt>
      <trkpt lat="42.931431" lon="0.434361">
        <ele>1683.9</ele>
        <time>2019-01-02T14:08:05Z</time>
      </trkpt>
      <trkpt lat="42.931418" lon="0.434250">
        <ele>1683.3</ele>
        <time>2019-01-02T14:08:13Z</time>
      </trkpt>
      <trkpt lat="42.931396" lon="0.434136">
        <ele>1683.2</ele>
        <time>2019-01-02T14:08:22Z</time>
      </trkpt>
      <trkpt lat="42.931379" lon="0.434015">
        <ele>1681.6</ele>
        <time>2019-01-02T14:08:32Z</time>
      </trkpt>
      <trkpt lat="42.931358" lon="0.433892">
        <ele>1680.7</ele>
        <time>2019-01-02T14:08:42Z</time>
      </trkpt>
      <trkpt lat="42.931344" lon="0.433778">
        <ele>1679.8</ele>
        <time>2019-01-02T14:08:51Z</time>
      </trkpt>
      <trkpt lat="42.931347" lon="0.433654">
        <ele>1679.3</ele>
        <time>2019-01-02T14:09:01Z</time>
      </trkpt>
      <trkpt lat="42.931337" lon="0.433516">
        <ele>1679.8</ele>
        <time>2019-01-02T14:09:10Z</time>
      </trkpt>
      <trkpt lat="42.931329" lon="0.433386">
        <ele>1680.2</ele>
        <time>2019-01-02T14:09:19Z</time>
      </trkpt>
      <trkpt lat="42.931320" lon="0.433264">
        <ele>1680.6</ele>
        <time>2019-01-02T14:09:28Z</time>
      </trkpt>
      <trkpt lat="42.931306" lon="0.433137">
        <ele>1680.6</ele>
        <time>2019-01-02T14:09:37Z</time>
      </trkpt>
      <trkpt lat="42.931297" lon="0.433022">
        <ele>1681.0</ele>
        <time>2019-01-02T14:09:45Z</time>
      </trkpt>
      <trkpt lat="42.931309" lon="0.432894">
        <ele>1681.5</ele>
        <time>2019-01-02T14:09:54Z</time>
      </trkpt>
      <trkpt lat="42.931322" lon="0.432776">
        <ele>1681.0</ele>
        <time>2019-01-02T14:10:03Z</time>
      </trkpt>
      <trkpt lat="42.931330" lon="0.432638">
        <ele>1679.7</ele>
        <time>2019-01-02T14:10:12Z</time>
      </trkpt>
      <trkpt lat="42.931324" lon="0.432515">
        <ele>1678.4</ele>
        <time>2019-01-02T14:10:20Z</time>
      </trkpt>
      <trkpt lat="42.931322" lon="0.432386">
        <ele>1677.4</ele>
        <time>2019-01-02T14:10:28Z</time>
      </trkpt>
      <trkpt lat="42.931332" lon="0.432254">
        <ele>1676.3</ele>
        <time>2019-01-02T14:10:37Z</time>
      </trkpt>
      <trkpt lat="42.931347" lon="0.432130">
        <ele>1675.6</ele>
        <time>2019-01-02T14:10:46Z</time>
      </trkpt>
      <trkpt lat="42.931352" lon="0.432015">
        <ele>1674.9</ele>
        <time>2019-01-02T14:10:56Z</time>
      </trkpt>
      <trkpt lat="42.931359" lon="0.431891">
        <ele>1674.4</ele>
        <time>2019-01-02T14:11:07Z</time>
      </trkpt>
      <trkpt lat="42.931379" lon="0.431759">
        <ele>1673.8</ele>
        <time>2019-01-02T14:11:22Z</time>
      </trkpt>
      <trkpt lat="42.931367" lon="0.431642">
        <ele>1673.3</ele>
        <time>2019-01-02T14:11:32Z</time>
      </trkpt>
      <trkpt lat="42.931347" lon="0.431504">
        <ele>1673.6</ele>
        <time>2019-01-02T14:11:43Z</time>
      </trkpt>
      <trkpt lat="42.931334" lon="0.431380">
        <ele>1673.7</ele>
        <time>2019-01-02T14:11:52Z</time>
      </trkpt>
      <trkpt lat="42.931314" lon="0.431252">
        <ele>1673.9</ele>
        <time>2019-01-02T14:12:00Z</time>
      </trkpt>
      <trkpt lat="42.931322" lon="0.431135">
        <ele>1674.3</ele>
        <time>2019-01-02T14:12:09Z</time>
      </trkpt>
      <trkpt lat="42.931335" lon="0.430995">
        <ele>1675.2</ele>
        <time>2019-01-02T14:12:19Z</time>
      </trkpt>
      <trkpt lat="42.931338" lon="0.430866">
        <ele>1675.7</ele>
        <time>2019-01-02T14:12:28Z</time>
      </trkpt>
      <trkpt lat="42.931338" lon="0.430737">
        <ele>1675.9</ele>
        <time>2019-01-02T14:12:36Z</time>
      </trkpt>
      <trkpt lat="42.931339" lon="0.430611">
        <ele>1676.6</ele>
        <time>2019-01-02T14:12:45Z</time>
      </trkpt>
      <trkpt lat="42.931346" lon="0.430495">
        <ele>1677.0</ele>
        <time>2019-01-02T14:12:53Z</time>
      </trkpt>
      <trkpt lat="42.931353" lon="0.430380">
        <ele>1677.3</ele>
        <time>2019-01-02T14:13:02Z</time>
      </trkpt>
      <trkpt lat="42.931352" lon="0.430241">
        <ele>1677.9</ele>
        <time>2019-01-02T14:13:12Z</time>
      </trkpt>
      <trkpt lat="42.931357" lon="0.430111">
        <ele>1678.7</ele>
        <time>2019-01-02T14:13:21Z</time>
      </trkpt>
      <trkpt lat="42.931357" lon="0.429972">
        <ele>1679.7</ele>
        <time>2019-01-02T14:13:30Z</time>
      </trkpt>
      <trkpt lat="42.931366" lon="0.429854">
        <ele>1681.1</ele>
        <time>2019-01-02T14:13:39Z</time>
      </trkpt>
      <trkpt lat="42.931389" lon="0.429746">
        <ele>1682.5</ele>
        <time>2019-01-02T14:13:49Z</time>
      </trkpt>
      <trkpt lat="42.931396" lon="0.429614">
        <ele>1684.1</ele>
        <time>2019-01-02T14:14:00Z</time>
      </trkpt>
      <trkpt lat="42.931408" lon="0.429485">
        <ele>1686.2</ele>
        <time>2019-01-02T14:14:11Z</time>
      </trkpt>
      <trkpt lat="42.931393" lon="0.429381">
        <ele>1687.5</ele>
        <time>2019-01-02T14:14:21Z</time>
      </trkpt>
      <trkpt lat="42.931369" lon="0.429321">
        <ele>1689.2</ele>
        <time>2019-01-02T14:17:09Z</time>
      </trkpt>
      <trkpt lat="42.931349" lon="0.429269">
        <ele>1689.4</ele>
        <time>2019-01-02T14:17:51Z</time>
      </trkpt>
      <trkpt lat="42.931281" lon="0.429261">
        <ele>1687.2</ele>
        <time>2019-01-02T14:18:37Z</time>
      </trkpt>
      <trkpt lat="42.931223" lon="0.429209">
        <ele>1682.8</ele>
        <time>2019-01-02T14:18:54Z</time>
      </trkpt>
      <trkpt lat="42.931200" lon="0.429084">
        <ele>1680.7</ele>
        <time>2019-01-02T14:19:06Z</time>
      </trkpt>
      <trkpt lat="42.931187" lon="0.428948">
        <ele>1678.5</ele>
        <time>2019-01-02T14:19:16Z</time>
      </trkpt>
      <trkpt lat="42.931177" lon="0.428818">
        <ele>1676.7</ele>
        <time>2019-01-02T14:19:26Z</time>
      </trkpt>
      <trkpt lat="42.931170" lon="0.428680">
        <ele>1674.2</ele>
        <time>2019-01-02T14:19:35Z</time>
      </trkpt>
      <trkpt lat="42.931157" lon="0.428546">
        <ele>1672.1</ele>
        <time>2019-01-02T14:19:44Z</time>
      </trkpt>
      <trkpt lat="42.931137" lon="0.428422">
        <ele>1669.6</ele>
        <time>2019-01-02T14:19:53Z</time>
      </trkpt>
      <trkpt lat="42.931112" lon="0.428282">
        <ele>1666.4</ele>
        <time>2019-01-02T14:20:04Z</time>
      </trkpt>
      <trkpt lat="42.931079" lon="0.428141">
        <ele>1664.5</ele>
        <time>2019-01-02T14:20:14Z</time>
      </trkpt>
      <trkpt lat="42.931035" lon="0.428004">
        <ele>1662.7</ele>
        <time>2019-01-02T14:20:23Z</time>
      </trkpt>
      <trkpt lat="42.930988" lon="0.427872">
        <ele>1661.3</ele>
        <time>2019-01-02T14:20:32Z</time>
      </trkpt>
      <trkpt lat="42.930935" lon="0.427753">
        <ele>1659.5</ele>
        <time>2019-01-02T14:20:41Z</time>
      </trkpt>
      <trkpt lat="42.930894" lon="0.427614">
        <ele>1656.9</ele>
        <time>2019-01-02T14:20:50Z</time>
      </trkpt>
      <trkpt lat="42.930882" lon="0.427481">
        <ele>1655.0</ele>
        <time>2019-01-02T14:20:59Z</time>
      </trkpt>
      <trkpt lat="42.930881" lon="0.427320">
        <ele>1653.6</ele>
        <time>2019-01-02T14:21:08Z</time>
      </trkpt>
      <trkpt lat="42.930891" lon="0.427181">
        <ele>1652.2</ele>
        <time>2019-01-02T14:21:16Z</time>
      </trkpt>
      <trkpt lat="42.930937" lon="0.427058">
        <ele>1650.9</ele>
        <time>2019-01-02T14:21:24Z</time>
      </trkpt>
      <trkpt lat="42.930985" lon="0.426951">
        <ele>1649.3</ele>
        <time>2019-01-02T14:21:31Z</time>
      </trkpt>
      <trkpt lat="42.931019" lon="0.426836">
        <ele>1647.2</ele>
        <time>2019-01-02T14:21:40Z</time>
      </trkpt>
      <trkpt lat="42.931051" lon="0.426702">
        <ele>1644.4</ele>
        <time>2019-01-02T14:21:50Z</time>
      </trkpt>
      <trkpt lat="42.931087" lon="0.426565">
        <ele>1642.9</ele>
        <time>2019-01-02T14:21:58Z</time>
      </trkpt>
      <trkpt lat="42.931047" lon="0.426507">
        <ele>1640.2</ele>
        <time>2019-01-02T14:22:09Z</time>
      </trkpt>
      <trkpt lat="42.930971" lon="0.426615">
        <ele>1638.1</ele>
        <time>2019-01-02T14:22:19Z</time>
      </trkpt>
      <trkpt lat="42.930893" lon="0.426722">
        <ele>1636.1</ele>
        <time>2019-01-02T14:22:29Z</time>
      </trkpt>
      <trkpt lat="42.930813" lon="0.426799">
        <ele>1633.9</ele>
        <time>2019-01-02T14:22:38Z</time>
      </trkpt>
      <trkpt lat="42.930796" lon="0.426637">
        <ele>1631.4</ele>
        <time>2019-01-02T14:22:48Z</time>
      </trkpt>
      <trkpt lat="42.930763" lon="0.426590">
        <ele>1628.8</ele>
        <time>2019-01-02T14:22:58Z</time>
      </trkpt>
      <trkpt lat="42.930698" lon="0.426691">
        <ele>1626.2</ele>
        <time>2019-01-02T14:23:07Z</time>
      </trkpt>
      <trkpt lat="42.930642" lon="0.426793">
        <ele>1624.0</ele>
        <time>2019-01-02T14:23:15Z</time>
      </trkpt>
      <trkpt lat="42.930554" lon="0.426886">
        <ele>1621.8</ele>
        <time>2019-01-02T14:23:24Z</time>
      </trkpt>
      <trkpt lat="42.930499" lon="0.426978">
        <ele>1619.8</ele>
        <time>2019-01-02T14:23:33Z</time>
      </trkpt>
      <trkpt lat="42.930454" lon="0.427093">
        <ele>1618.3</ele>
        <time>2019-01-02T14:23:41Z</time>
      </trkpt>
      <trkpt lat="42.930420" lon="0.427204">
        <ele>1616.4</ele>
        <time>2019-01-02T14:23:50Z</time>
      </trkpt>
      <trkpt lat="42.930363" lon="0.427311">
        <ele>1614.1</ele>
        <time>2019-01-02T14:23:59Z</time>
      </trkpt>
      <trkpt lat="42.930298" lon="0.427372">
        <ele>1612.4</ele>
        <time>2019-01-02T14:24:08Z</time>
      </trkpt>
      <trkpt lat="42.930293" lon="0.427241">
        <ele>1610.0</ele>
        <time>2019-01-02T14:24:17Z</time>
      </trkpt>
      <trkpt lat="42.930308" lon="0.427096">
        <ele>1607.9</ele>
        <time>2019-01-02T14:24:25Z</time>
      </trkpt>
      <trkpt lat="42.930331" lon="0.426965">
        <ele>1606.2</ele>
        <time>2019-01-02T14:24:33Z</time>
      </trkpt>
      <trkpt lat="42.930349" lon="0.426848">
        <ele>1605.4</ele>
        <time>2019-01-02T14:24:41Z</time>
      </trkpt>
      <trkpt lat="42.930366" lon="0.426745">
        <ele>1603.9</ele>
        <time>2019-01-02T14:24:49Z</time>
      </trkpt>
      <trkpt lat="42.930377" lon="0.426615">
        <ele>1602.1</ele>
        <time>2019-01-02T14:24:57Z</time>
      </trkpt>
      <trkpt lat="42.930304" lon="0.426535">
        <ele>1601.2</ele>
        <time>2019-01-02T14:25:05Z</time>
      </trkpt>
      <trkpt lat="42.930208" lon="0.426470">
        <ele>1599.1</ele>
        <time>2019-01-02T14:25:21Z</time>
      </trkpt>
      <trkpt lat="42.930125" lon="0.426410">
        <ele>1598.3</ele>
        <time>2019-01-02T14:25:29Z</time>
      </trkpt>
      <trkpt lat="42.930041" lon="0.426356">
        <ele>1596.8</ele>
        <time>2019-01-02T14:25:37Z</time>
      </trkpt>
      <trkpt lat="42.929961" lon="0.426269">
        <ele>1595.7</ele>
        <time>2019-01-02T14:25:45Z</time>
      </trkpt>
      <trkpt lat="42.929884" lon="0.426175">
        <ele>1594.0</ele>
        <time>2019-01-02T14:25:53Z</time>
      </trkpt>
      <trkpt lat="42.929814" lon="0.426093">
        <ele>1590.5</ele>
        <time>2019-01-02T14:26:02Z</time>
      </trkpt>
      <trkpt lat="42.929720" lon="0.426022">
        <ele>1587.3</ele>
        <time>2019-01-02T14:26:12Z</time>
      </trkpt>
      <trkpt lat="42.929657" lon="0.425940">
        <ele>1584.7</ele>
        <time>2019-01-02T14:26:20Z</time>
      </trkpt>
      <trkpt lat="42.929579" lon="0.425860">
        <ele>1581.3</ele>
        <time>2019-01-02T14:26:29Z</time>
      </trkpt>
      <trkpt lat="42.929503" lon="0.425781">
        <ele>1578.8</ele>
        <time>2019-01-02T14:26:36Z</time>
      </trkpt>
      <trkpt lat="42.929421" lon="0.425711">
        <ele>1576.1</ele>
        <time>2019-01-02T14:26:45Z</time>
      </trkpt>
      <trkpt lat="42.929350" lon="0.425618">
        <ele>1573.3</ele>
        <time>2019-01-02T14:26:53Z</time>
      </trkpt>
      <trkpt lat="42.929285" lon="0.425533">
        <ele>1570.6</ele>
        <time>2019-01-02T14:27:01Z</time>
      </trkpt>
      <trkpt lat="42.929208" lon="0.425474">
        <ele>1568.5</ele>
        <time>2019-01-02T14:27:10Z</time>
      </trkpt>
      <trkpt lat="42.929128" lon="0.425386">
        <ele>1566.7</ele>
        <time>2019-01-02T14:27:18Z</time>
      </trkpt>
      <trkpt lat="42.929065" lon="0.425294">
        <ele>1564.4</ele>
        <time>2019-01-02T14:27:26Z</time>
      </trkpt>
      <trkpt lat="42.929005" lon="0.425184">
        <ele>1562.9</ele>
        <time>2019-01-02T14:27:34Z</time>
      </trkpt>
      <trkpt lat="42.928956" lon="0.425079">
        <ele>1560.7</ele>
        <time>2019-01-02T14:27:44Z</time>
      </trkpt>
      <trkpt lat="42.928911" lon="0.424955">
        <ele>1558.6</ele>
        <time>2019-01-02T14:27:54Z</time>
      </trkpt>
      <trkpt lat="42.928866" lon="0.424829">
        <ele>1557.1</ele>
        <time>2019-01-02T14:28:02Z</time>
      </trkpt>
      <trkpt lat="42.928827" lon="0.424715">
        <ele>1554.5</ele>
        <time>2019-01-02T14:28:10Z</time>
      </trkpt>
      <trkpt lat="42.928763" lon="0.424605">
        <ele>1552.6</ele>
        <time>2019-01-02T14:28:19Z</time>
      </trkpt>
      <trkpt lat="42.928712" lon="0.424492">
        <ele>1551.4</ele>
        <time>2019-01-02T14:28:27Z</time>
      </trkpt>
      <trkpt lat="42.928662" lon="0.424379">
        <ele>1549.8</ele>
        <time>2019-01-02T14:28:35Z</time>
      </trkpt>
      <trkpt lat="42.928620" lon="0.424239">
        <ele>1548.3</ele>
        <time>2019-01-02T14:28:43Z</time>
      </trkpt>
      <trkpt lat="42.928594" lon="0.424105">
        <ele>1546.6</ele>
        <time>2019-01-02T14:28:51Z</time>
      </trkpt>
      <trkpt lat="42.928576" lon="0.423972">
        <ele>1545.0</ele>
        <time>2019-01-02T14:28:59Z</time>
      </trkpt>
      <trkpt lat="42.928565" lon="0.423849">
        <ele>1543.0</ele>
        <time>2019-01-02T14:29:07Z</time>
      </trkpt>
      <trkpt lat="42.928543" lon="0.423796">
        <ele>1540.9</ele>
        <time>2019-01-02T14:29:16Z</time>
      </trkpt>
      <trkpt lat="42.928488" lon="0.423905">
        <ele>1538.0</ele>
        <time>2019-01-02T14:29:25Z</time>
      </trkpt>
      <trkpt lat="42.928436" lon="0.424028">
        <ele>1536.7</ele>
        <time>2019-01-02T14:29:34Z</time>
      </trkpt>
      <trkpt lat="42.928390" lon="0.424147">
        <ele>1535.0</ele>
        <time>2019-01-02T14:29:43Z</time>
      </trkpt>
      <trkpt lat="42.928337" lon="0.424274">
        <ele>1533.4</ele>
        <time>2019-01-02T14:29:51Z</time>
      </trkpt>
      <trkpt lat="42.928308" lon="0.424393">
        <ele>1531.6</ele>
        <time>2019-01-02T14:29:59Z</time>
      </trkpt>
      <trkpt lat="42.928260" lon="0.424505">
        <ele>1529.6</ele>
        <time>2019-01-02T14:30:08Z</time>
      </trkpt>
      <trkpt lat="42.928261" lon="0.424626">
        <ele>1527.8</ele>
        <time>2019-01-02T14:30:16Z</time>
      </trkpt>
      <trkpt lat="42.928280" lon="0.424758">
        <ele>1525.1</ele>
        <time>2019-01-02T14:30:24Z</time>
      </trkpt>
      <trkpt lat="42.928286" lon="0.424893">
        <ele>1522.7</ele>
        <time>2019-01-02T14:30:32Z</time>
      </trkpt>
      <trkpt lat="42.928291" lon="0.425017">
        <ele>1520.5</ele>
        <time>2019-01-02T14:30:39Z</time>
      </trkpt>
      <trkpt lat="42.928292" lon="0.425147">
        <ele>1518.2</ele>
        <time>2019-01-02T14:30:48Z</time>
      </trkpt>
      <trkpt lat="42.928297" lon="0.425284">
        <ele>1516.9</ele>
        <time>2019-01-02T14:30:56Z</time>
      </trkpt>
      <trkpt lat="42.928315" lon="0.425411">
        <ele>1515.7</ele>
        <time>2019-01-02T14:31:04Z</time>
      </trkpt>
      <trkpt lat="42.928337" lon="0.425547">
        <ele>1514.4</ele>
        <time>2019-01-02T14:31:12Z</time>
      </trkpt>
      <trkpt lat="42.928364" lon="0.425668">
        <ele>1512.6</ele>
        <time>2019-01-02T14:31:19Z</time>
      </trkpt>
      <trkpt lat="42.928388" lon="0.425797">
        <ele>1510.9</ele>
        <time>2019-01-02T14:31:26Z</time>
      </trkpt>
      <trkpt lat="42.928388" lon="0.425912">
        <ele>1509.0</ele>
        <time>2019-01-02T14:31:36Z</time>
      </trkpt>
      <trkpt lat="42.928268" lon="0.425824">
        <ele>1507.2</ele>
        <time>2019-01-02T14:31:45Z</time>
      </trkpt>
      <trkpt lat="42.928185" lon="0.425731">
        <ele>1505.2</ele>
        <time>2019-01-02T14:31:54Z</time>
      </trkpt>
      <trkpt lat="42.928104" lon="0.425634">
        <ele>1503.5</ele>
        <time>2019-01-02T14:32:02Z</time>
      </trkpt>
      <trkpt lat="42.928014" lon="0.425526">
        <ele>1501.8</ele>
        <time>2019-01-02T14:32:09Z</time>
      </trkpt>
      <trkpt lat="42.927953" lon="0.425447">
        <ele>1500.1</ele>
        <time>2019-01-02T14:32:16Z</time>
      </trkpt>
      <trkpt lat="42.927886" lon="0.425363">
        <ele>1497.9</ele>
        <time>2019-01-02T14:32:23Z</time>
      </trkpt>
      <trkpt lat="42.927812" lon="0.425281">
        <ele>1495.5</ele>
        <time>2019-01-02T14:32:30Z</time>
      </trkpt>
      <trkpt lat="42.927743" lon="0.425198">
        <ele>1493.4</ele>
        <time>2019-01-02T14:32:37Z</time>
      </trkpt>
      <trkpt lat="42.927664" lon="0.425134">
        <ele>1492.0</ele>
        <time>2019-01-02T14:32:44Z</time>
      </trkpt>
      <trkpt lat="42.927582" lon="0.425135">
        <ele>1489.9</ele>
        <time>2019-01-02T14:32:52Z</time>
      </trkpt>
      <trkpt lat="42.927486" lon="0.425128">
        <ele>1488.1</ele>
        <time>2019-01-02T14:33:00Z</time>
      </trkpt>
      <trkpt lat="42.927385" lon="0.425129">
        <ele>1486.6</ele>
        <time>2019-01-02T14:33:08Z</time>
      </trkpt>
      <trkpt lat="42.927296" lon="0.425055">
        <ele>1484.5</ele>
        <time>2019-01-02T14:33:16Z</time>
      </trkpt>
      <trkpt lat="42.927225" lon="0.424974">
        <ele>1482.8</ele>
        <time>2019-01-02T14:33:23Z</time>
      </trkpt>
      <trkpt lat="42.927162" lon="0.424870">
        <ele>1480.8</ele>
        <time>2019-01-02T14:33:31Z</time>
      </trkpt>
      <trkpt lat="42.927134" lon="0.424762">
        <ele>1479.3</ele>
        <time>2019-01-02T14:33:38Z</time>
      </trkpt>
      <trkpt lat="42.927098" lon="0.424653">
        <ele>1477.4</ele>
        <time>2019-01-02T14:33:45Z</time>
      </trkpt>
      <trkpt lat="42.927071" lon="0.424535">
        <ele>1475.7</ele>
        <time>2019-01-02T14:33:52Z</time>
      </trkpt>
      <trkpt lat="42.927048" lon="0.424410">
        <ele>1474.2</ele>
        <time>2019-01-02T14:33:59Z</time>
      </trkpt>
      <trkpt lat="42.927031" lon="0.424284">
        <ele>1472.6</ele>
        <time>2019-01-02T14:34:06Z</time>
      </trkpt>
      <trkpt lat="42.927022" lon="0.424153">
        <ele>1470.4</ele>
        <time>2019-01-02T14:34:14Z</time>
      </trkpt>
      <trkpt lat="42.927024" lon="0.424016">
        <ele>1468.4</ele>
        <time>2019-01-02T14:34:22Z</time>
      </trkpt>
      <trkpt lat="42.927040" lon="0.423875">
        <ele>1467.1</ele>
        <time>2019-01-02T14:34:29Z</time>
      </trkpt>
      <trkpt lat="42.927054" lon="0.423743">
        <ele>1465.5</ele>
        <time>2019-01-02T14:34:37Z</time>
      </trkpt>
      <trkpt lat="42.927076" lon="0.423614">
        <ele>1463.8</ele>
        <time>2019-01-02T14:34:45Z</time>
      </trkpt>
      <trkpt lat="42.927108" lon="0.423489">
        <ele>1462.1</ele>
        <time>2019-01-02T14:34:53Z</time>
      </trkpt>
      <trkpt lat="42.927136" lon="0.423364">
        <ele>1460.3</ele>
        <time>2019-01-02T14:35:00Z</time>
      </trkpt>
      <trkpt lat="42.927160" lon="0.423229">
        <ele>1458.6</ele>
        <time>2019-01-02T14:35:07Z</time>
      </trkpt>
      <trkpt lat="42.927200" lon="0.423119">
        <ele>1456.8</ele>
        <time>2019-01-02T14:35:15Z</time>
      </trkpt>
      <trkpt lat="42.927248" lon="0.423009">
        <ele>1455.1</ele>
        <time>2019-01-02T14:35:22Z</time>
      </trkpt>
      <trkpt lat="42.927260" lon="0.422868">
        <ele>1453.7</ele>
        <time>2019-01-02T14:35:29Z</time>
      </trkpt>
      <trkpt lat="42.927279" lon="0.422744">
        <ele>1452.1</ele>
        <time>2019-01-02T14:35:37Z</time>
      </trkpt>
      <trkpt lat="42.927256" lon="0.422640">
        <ele>1450.4</ele>
        <time>2019-01-02T14:35:45Z</time>
      </trkpt>
      <trkpt lat="42.927223" lon="0.422505">
        <ele>1447.8</ele>
        <time>2019-01-02T14:35:54Z</time>
      </trkpt>
      <trkpt lat="42.927187" lon="0.422374">
        <ele>1445.6</ele>
        <time>2019-01-02T14:36:02Z</time>
      </trkpt>
      <trkpt lat="42.927124" lon="0.422298">
        <ele>1443.8</ele>
        <time>2019-01-02T14:36:10Z</time>
      </trkpt>
      <trkpt lat="42.927061" lon="0.422192">
        <ele>1442.1</ele>
        <time>2019-01-02T14:36:17Z</time>
      </trkpt>
      <trkpt lat="42.927005" lon="0.422059">
        <ele>1440.4</ele>
        <time>2019-01-02T14:36:25Z</time>
      </trkpt>
      <trkpt lat="42.926940" lon="0.421944">
        <ele>1438.9</ele>
        <time>2019-01-02T14:36:33Z</time>
      </trkpt>
      <trkpt lat="42.926870" lon="0.421840">
        <ele>1437.0</ele>
        <time>2019-01-02T14:36:41Z</time>
      </trkpt>
      <trkpt lat="42.926820" lon="0.421749">
        <ele>1435.9</ele>
        <time>2019-01-02T14:36:48Z</time>
      </trkpt>
      <trkpt lat="42.926753" lon="0.421670">
        <ele>1434.1</ele>
        <time>2019-01-02T14:36:56Z</time>
      </trkpt>
      <trkpt lat="42.926718" lon="0.421541">
        <ele>1432.0</ele>
        <time>2019-01-02T14:37:05Z</time>
      </trkpt>
      <trkpt lat="42.926708" lon="0.421442">
        <ele>1430.6</ele>
        <time>2019-01-02T14:37:14Z</time>
      </trkpt>
      <trkpt lat="42.926653" lon="0.421544">
        <ele>1429.1</ele>
        <time>2019-01-02T14:37:22Z</time>
      </trkpt>
      <trkpt lat="42.926590" lon="0.421671">
        <ele>1426.9</ele>
        <time>2019-01-02T14:37:33Z</time>
      </trkpt>
      <trkpt lat="42.926542" lon="0.421626">
        <ele>1424.9</ele>
        <time>2019-01-02T14:37:42Z</time>
      </trkpt>
      <trkpt lat="42.926520" lon="0.421492">
        <ele>1423.2</ele>
        <time>2019-01-02T14:37:50Z</time>
      </trkpt>
      <trkpt lat="42.926506" lon="0.421358">
        <ele>1421.7</ele>
        <time>2019-01-02T14:37:57Z</time>
      </trkpt>
      <trkpt lat="42.926496" lon="0.421231">
        <ele>1419.6</ele>
        <time>2019-01-02T14:38:04Z</time>
      </trkpt>
      <trkpt lat="42.926477" lon="0.421106">
        <ele>1417.8</ele>
        <time>2019-01-02T14:38:11Z</time>
      </trkpt>
      <trkpt lat="42.926474" lon="0.420972">
        <ele>1415.9</ele>
        <time>2019-01-02T14:38:19Z</time>
      </trkpt>
      <trkpt lat="42.926515" lon="0.420842">
        <ele>1413.7</ele>
        <time>2019-01-02T14:38:28Z</time>
      </trkpt>
      <trkpt lat="42.926577" lon="0.420779">
        <ele>1411.5</ele>
        <time>2019-01-02T14:42:00Z</time>
      </trkpt>
      <trkpt lat="42.926615" lon="0.420652">
        <ele>1410.2</ele>
        <time>2019-01-02T14:42:08Z</time>
      </trkpt>
      <trkpt lat="42.926657" lon="0.420541">
        <ele>1408.2</ele>
        <time>2019-01-02T14:42:15Z</time>
      </trkpt>
      <trkpt lat="42.926638" lon="0.420461">
        <ele>1406.6</ele>
        <time>2019-01-02T14:42:24Z</time>
      </trkpt>
      <trkpt lat="42.926570" lon="0.420536">
        <ele>1404.6</ele>
        <time>2019-01-02T14:42:32Z</time>
      </trkpt>
      <trkpt lat="42.926470" lon="0.420602">
        <ele>1402.3</ele>
        <time>2019-01-02T14:42:40Z</time>
      </trkpt>
      <trkpt lat="42.926355" lon="0.420673">
        <ele>1400.7</ele>
        <time>2019-01-02T14:42:48Z</time>
      </trkpt>
      <trkpt lat="42.926275" lon="0.420739">
        <ele>1399.3</ele>
        <time>2019-01-02T14:42:55Z</time>
      </trkpt>
      <trkpt lat="42.926190" lon="0.420820">
        <ele>1397.1</ele>
        <time>2019-01-02T14:43:04Z</time>
      </trkpt>
      <trkpt lat="42.926111" lon="0.420920">
        <ele>1395.1</ele>
        <time>2019-01-02T14:43:12Z</time>
      </trkpt>
      <trkpt lat="42.926049" lon="0.421024">
        <ele>1393.3</ele>
        <time>2019-01-02T14:43:20Z</time>
      </trkpt>
      <trkpt lat="42.925974" lon="0.421124">
        <ele>1391.2</ele>
        <time>2019-01-02T14:43:27Z</time>
      </trkpt>
      <trkpt lat="42.925908" lon="0.421198">
        <ele>1389.3</ele>
        <time>2019-01-02T14:43:33Z</time>
      </trkpt>
      <trkpt lat="42.925847" lon="0.421281">
        <ele>1387.4</ele>
        <time>2019-01-02T14:43:40Z</time>
      </trkpt>
      <trkpt lat="42.925790" lon="0.421380">
        <ele>1386.0</ele>
        <time>2019-01-02T14:43:47Z</time>
      </trkpt>
      <trkpt lat="42.925738" lon="0.421488">
        <ele>1384.1</ele>
        <time>2019-01-02T14:43:55Z</time>
      </trkpt>
      <trkpt lat="42.925680" lon="0.421591">
        <ele>1382.1</ele>
        <time>2019-01-02T14:44:02Z</time>
      </trkpt>
      <trkpt lat="42.925628" lon="0.421703">
        <ele>1380.4</ele>
        <time>2019-01-02T14:44:09Z</time>
      </trkpt>
      <trkpt lat="42.925590" lon="0.421824">
        <ele>1377.9</ele>
        <time>2019-01-02T14:44:18Z</time>
      </trkpt>
      <trkpt lat="42.925590" lon="0.421949">
        <ele>1375.7</ele>
        <time>2019-01-02T14:44:26Z</time>
      </trkpt>
      <trkpt lat="42.925539" lon="0.421858">
        <ele>1373.5</ele>
        <time>2019-01-02T14:44:34Z</time>
      </trkpt>
      <trkpt lat="42.925473" lon="0.421737">
        <ele>1371.4</ele>
        <time>2019-01-02T14:44:43Z</time>
      </trkpt>
      <trkpt lat="42.925437" lon="0.421852">
        <ele>1368.3</ele>
        <time>2019-01-02T14:44:55Z</time>
      </trkpt>
      <trkpt lat="42.925424" lon="0.422001">
        <ele>1365.3</ele>
        <time>2019-01-02T14:45:04Z</time>
      </trkpt>
      <trkpt lat="42.925397" lon="0.422089">
        <ele>1362.5</ele>
        <time>2019-01-02T14:45:12Z</time>
      </trkpt>
      <trkpt lat="42.925318" lon="0.421978">
        <ele>1359.6</ele>
        <time>2019-01-02T14:45:20Z</time>
      </trkpt>
      <trkpt lat="42.925264" lon="0.421858">
        <ele>1357.4</ele>
        <time>2019-01-02T14:45:27Z</time>
      </trkpt>
      <trkpt lat="42.925251" lon="0.421984">
        <ele>1354.9</ele>
        <time>2019-01-02T14:45:36Z</time>
      </trkpt>
      <trkpt lat="42.925175" lon="0.421905">
        <ele>1352.2</ele>
        <time>2019-01-02T14:45:45Z</time>
      </trkpt>
      <trkpt lat="42.925106" lon="0.421879">
        <ele>1347.4</ele>
        <time>2019-01-02T14:46:01Z</time>
      </trkpt>
      <trkpt lat="42.925022" lon="0.421813">
        <ele>1344.1</ele>
        <time>2019-01-02T14:46:15Z</time>
      </trkpt>
      <trkpt lat="42.924931" lon="0.421678">
        <ele>1341.3</ele>
        <time>2019-01-02T14:46:24Z</time>
      </trkpt>
      <trkpt lat="42.924868" lon="0.421573">
        <ele>1339.0</ele>
        <time>2019-01-02T14:46:32Z</time>
      </trkpt>
      <trkpt lat="42.924828" lon="0.421425">
        <ele>1334.7</ele>
        <time>2019-01-02T14:46:45Z</time>
      </trkpt>
      <trkpt lat="42.924824" lon="0.421260">
        <ele>1331.7</ele>
        <time>2019-01-02T14:46:55Z</time>
      </trkpt>
      <trkpt lat="42.924787" lon="0.421113">
        <ele>1329.8</ele>
        <time>2019-01-02T14:47:04Z</time>
      </trkpt>
      <trkpt lat="42.924735" lon="0.420992">
        <ele>1326.4</ele>
        <time>2019-01-02T14:47:14Z</time>
      </trkpt>
      <trkpt lat="42.924710" lon="0.420852">
        <ele>1324.0</ele>
        <time>2019-01-02T14:47:24Z</time>
      </trkpt>
      <trkpt lat="42.924705" lon="0.420674">
        <ele>1321.7</ele>
        <time>2019-01-02T14:47:34Z</time>
      </trkpt>
      <trkpt lat="42.924699" lon="0.420506">
        <ele>1319.1</ele>
        <time>2019-01-02T14:47:45Z</time>
      </trkpt>
      <trkpt lat="42.924738" lon="0.420365">
        <ele>1316.6</ele>
        <time>2019-01-02T14:47:54Z</time>
      </trkpt>
      <trkpt lat="42.924706" lon="0.420283">
        <ele>1314.7</ele>
        <time>2019-01-02T14:48:03Z</time>
      </trkpt>
      <trkpt lat="42.924625" lon="0.420355">
        <ele>1312.4</ele>
        <time>2019-01-02T14:48:12Z</time>
      </trkpt>
      <trkpt lat="42.924533" lon="0.420372">
        <ele>1310.0</ele>
        <time>2019-01-02T14:48:21Z</time>
      </trkpt>
      <trkpt lat="42.924436" lon="0.420457">
        <ele>1307.2</ele>
        <time>2019-01-02T14:48:31Z</time>
      </trkpt>
      <trkpt lat="42.924364" lon="0.420538">
        <ele>1304.9</ele>
        <time>2019-01-02T14:48:41Z</time>
      </trkpt>
      <trkpt lat="42.924294" lon="0.420638">
        <ele>1302.2</ele>
        <time>2019-01-02T14:48:51Z</time>
      </trkpt>
      <trkpt lat="42.924225" lon="0.420691">
        <ele>1299.5</ele>
        <time>2019-01-02T14:49:01Z</time>
      </trkpt>
      <trkpt lat="42.924175" lon="0.420838">
        <ele>1296.2</ele>
        <time>2019-01-02T14:49:10Z</time>
      </trkpt>
      <trkpt lat="42.924100" lon="0.420924">
        <ele>1292.4</ele>
        <time>2019-01-02T14:49:20Z</time>
      </trkpt>
      <trkpt lat="42.924077" lon="0.420811">
        <ele>1290.0</ele>
        <time>2019-01-02T14:49:28Z</time>
      </trkpt>
      <trkpt lat="42.924068" lon="0.420757">
        <ele>1285.9</ele>
        <time>2019-01-02T14:52:11Z</time>
      </trkpt>
      <trkpt lat="42.924009" lon="0.420645">
        <ele>1284.7</ele>
        <time>2019-01-02T14:52:23Z</time>
      </trkpt>
      <trkpt lat="42.923994" lon="0.420501">
        <ele>1282.3</ele>
        <time>2019-01-02T14:52:33Z</time>
      </trkpt>
      <trkpt lat="42.924003" lon="0.420332">
        <ele>1281.1</ele>
        <time>2019-01-02T14:52:41Z</time>
      </trkpt>
      <trkpt lat="42.924046" lon="0.420189">
        <ele>1278.7</ele>
        <time>2019-01-02T14:52:52Z</time>
      </trkpt>
      <trkpt lat="42.924095" lon="0.420052">
        <ele>1276.4</ele>
        <time>2019-01-02T14:53:02Z</time>
      </trkpt>
      <trkpt lat="42.924143" lon="0.419904">
        <ele>1273.6</ele>
        <time>2019-01-02T14:53:10Z</time>
      </trkpt>
      <trkpt lat="42.924195" lon="0.419799">
        <ele>1270.9</ele>
        <time>2019-01-02T14:53:18Z</time>
      </trkpt>
      <trkpt lat="42.924257" lon="0.419634">
        <ele>1267.3</ele>
        <time>2019-01-02T14:53:29Z</time>
      </trkpt>
      <trkpt lat="42.924307" lon="0.419520">
        <ele>1264.2</ele>
        <time>2019-01-02T14:53:37Z</time>
      </trkpt>
      <trkpt lat="42.924343" lon="0.419383">
        <ele>1261.1</ele>
        <time>2019-01-02T14:53:45Z</time>
      </trkpt>
      <trkpt lat="42.924389" lon="0.419246">
        <ele>1259.0</ele>
        <time>2019-01-02T14:53:52Z</time>
      </trkpt>
      <trkpt lat="42.924442" lon="0.419154">
        <ele>1257.2</ele>
        <time>2019-01-02T14:53:59Z</time>
      </trkpt>
      <trkpt lat="42.924418" lon="0.418997">
        <ele>1255.5</ele>
        <time>2019-01-02T14:54:07Z</time>
      </trkpt>
      <trkpt lat="42.924402" lon="0.418855">
        <ele>1254.8</ele>
        <time>2019-01-02T14:54:15Z</time>
      </trkpt>
      <trkpt lat="42.924356" lon="0.418749">
        <ele>1254.3</ele>
        <time>2019-01-02T14:54:23Z</time>
      </trkpt>
      <trkpt lat="42.924258" lon="0.418677">
        <ele>1253.8</ele>
        <time>2019-01-02T14:54:31Z</time>
      </trkpt>
      <trkpt lat="42.924168" lon="0.418666">
        <ele>1253.2</ele>
        <time>2019-01-02T14:54:38Z</time>
      </trkpt>
      <trkpt lat="42.924077" lon="0.418598">
        <ele>1252.2</ele>
        <time>2019-01-02T14:54:45Z</time>
      </trkpt>
      <trkpt lat="42.923986" lon="0.418542">
        <ele>1251.2</ele>
        <time>2019-01-02T14:54:52Z</time>
      </trkpt>
      <trkpt lat="42.923911" lon="0.418465">
        <ele>1250.1</ele>
        <time>2019-01-02T14:54:59Z</time>
      </trkpt>
      <trkpt lat="42.923849" lon="0.418362">
        <ele>1249.2</ele>
        <time>2019-01-02T14:55:07Z</time>
      </trkpt>
      <trkpt lat="42.923794" lon="0.418247">
        <ele>1248.3</ele>
        <time>2019-01-02T14:55:14Z</time>
      </trkpt>
      <trkpt lat="42.923755" lon="0.418134">
        <ele>1247.5</ele>
        <time>2019-01-02T14:55:21Z</time>
      </trkpt>
      <trkpt lat="42.923683" lon="0.418031">
        <ele>1246.6</ele>
        <time>2019-01-02T14:55:30Z</time>
      </trkpt>
      <trkpt lat="42.923622" lon="0.417912">
        <ele>1245.8</ele>
        <time>2019-01-02T14:55:37Z</time>
      </trkpt>
      <trkpt lat="42.923580" lon="0.417789">
        <ele>1244.8</ele>
        <time>2019-01-02T14:55:44Z</time>
      </trkpt>
      <trkpt lat="42.923564" lon="0.417651">
        <ele>1244.0</ele>
        <time>2019-01-02T14:55:52Z</time>
      </trkpt>
      <trkpt lat="42.923565" lon="0.417531">
        <ele>1243.4</ele>
        <time>2019-01-02T14:55:58Z</time>
      </trkpt>
      <trkpt lat="42.923558" lon="0.417412">
        <ele>1242.1</ele>
        <time>2019-01-02T14:56:05Z</time>
      </trkpt>
      <trkpt lat="42.923565" lon="0.417283">
        <ele>1240.8</ele>
        <time>2019-01-02T14:56:12Z</time>
      </trkpt>
      <trkpt lat="42.923561" lon="0.417144">
        <ele>1239.9</ele>
        <time>2019-01-02T14:56:20Z</time>
      </trkpt>
      <trkpt lat="42.923561" lon="0.417016">
        <ele>1239.3</ele>
        <time>2019-01-02T14:56:28Z</time>
      </trkpt>
      <trkpt lat="42.923566" lon="0.416886">
        <ele>1238.6</ele>
        <time>2019-01-02T14:56:35Z</time>
      </trkpt>
      <trkpt lat="42.923652" lon="0.416762">
        <ele>1237.4</ele>
        <time>2019-01-02T14:56:44Z</time>
      </trkpt>
      <trkpt lat="42.923691" lon="0.416616">
        <ele>1237.0</ele>
        <time>2019-01-02T14:56:52Z</time>
      </trkpt>
      <trkpt lat="42.923725" lon="0.416495">
        <ele>1236.0</ele>
        <time>2019-01-02T14:57:00Z</time>
      </trkpt>
      <trkpt lat="42.923710" lon="0.416351">
        <ele>1234.9</ele>
        <time>2019-01-02T14:57:08Z</time>
      </trkpt>
      <trkpt lat="42.923644" lon="0.416247">
        <ele>1234.4</ele>
        <time>2019-01-02T14:57:15Z</time>
      </trkpt>
      <trkpt lat="42.923573" lon="0.416145">
        <ele>1233.3</ele>
        <time>2019-01-02T14:57:24Z</time>
      </trkpt>
      <trkpt lat="42.923489" lon="0.416039">
        <ele>1232.7</ele>
        <time>2019-01-02T14:57:32Z</time>
      </trkpt>
      <trkpt lat="42.923403" lon="0.415949">
        <ele>1232.3</ele>
        <time>2019-01-02T14:57:42Z</time>
      </trkpt>
      <trkpt lat="42.923313" lon="0.415873">
        <ele>1231.9</ele>
        <time>2019-01-02T14:57:50Z</time>
      </trkpt>
      <trkpt lat="42.923222" lon="0.415788">
        <ele>1231.6</ele>
        <time>2019-01-02T14:57:58Z</time>
      </trkpt>
      <trkpt lat="42.923153" lon="0.415694">
        <ele>1231.3</ele>
        <time>2019-01-02T14:58:06Z</time>
      </trkpt>
      <trkpt lat="42.923114" lon="0.415565">
        <ele>1230.9</ele>
        <time>2019-01-02T14:58:14Z</time>
      </trkpt>
      <trkpt lat="42.923148" lon="0.415433">
        <ele>1229.9</ele>
        <time>2019-01-02T14:58:22Z</time>
      </trkpt>
      <trkpt lat="42.923189" lon="0.415302">
        <ele>1228.2</ele>
        <time>2019-01-02T14:58:30Z</time>
      </trkpt>
      <trkpt lat="42.923240" lon="0.415161">
        <ele>1225.6</ele>
        <time>2019-01-02T14:58:41Z</time>
      </trkpt>
      <trkpt lat="42.923301" lon="0.415059">
        <ele>1223.1</ele>
        <time>2019-01-02T14:58:50Z</time>
      </trkpt>
      <trkpt lat="42.923378" lon="0.414930">
        <ele>1220.8</ele>
        <time>2019-01-02T14:58:59Z</time>
      </trkpt>
      <trkpt lat="42.923474" lon="0.414823">
        <ele>1218.6</ele>
        <time>2019-01-02T14:59:09Z</time>
      </trkpt>
      <trkpt lat="42.923563" lon="0.414704">
        <ele>1217.0</ele>
        <time>2019-01-02T14:59:18Z</time>
      </trkpt>
      <trkpt lat="42.923660" lon="0.414628">
        <ele>1215.2</ele>
        <time>2019-01-02T14:59:27Z</time>
      </trkpt>
      <trkpt lat="42.923759" lon="0.414529">
        <ele>1213.4</ele>
        <time>2019-01-02T14:59:39Z</time>
      </trkpt>
      <trkpt lat="42.923865" lon="0.414414">
        <ele>1212.1</ele>
        <time>2019-01-02T14:59:49Z</time>
      </trkpt>
      <trkpt lat="42.923897" lon="0.414270">
        <ele>1211.4</ele>
        <time>2019-01-02T14:59:56Z</time>
      </trkpt>
      <trkpt lat="42.923928" lon="0.414139">
        <ele>1210.6</ele>
        <time>2019-01-02T15:00:05Z</time>
      </trkpt>
      <trkpt lat="42.923987" lon="0.414017">
        <ele>1209.8</ele>
        <time>2019-01-02T15:00:13Z</time>
      </trkpt>
      <trkpt lat="42.924074" lon="0.413907">
        <ele>1208.7</ele>
        <time>2019-01-02T15:00:22Z</time>
      </trkpt>
      <trkpt lat="42.924153" lon="0.413816">
        <ele>1207.4</ele>
        <time>2019-01-02T15:00:31Z</time>
      </trkpt>
      <trkpt lat="42.924190" lon="0.413678">
        <ele>1206.1</ele>
        <time>2019-01-02T15:00:40Z</time>
      </trkpt>
      <trkpt lat="42.924220" lon="0.413534">
        <ele>1204.5</ele>
        <time>2019-01-02T15:00:48Z</time>
      </trkpt>
      <trkpt lat="42.924268" lon="0.413394">
        <ele>1202.3</ele>
        <time>2019-01-02T15:00:56Z</time>
      </trkpt>
      <trkpt lat="42.924376" lon="0.413294">
        <ele>1200.8</ele>
        <time>2019-01-02T15:01:05Z</time>
      </trkpt>
      <trkpt lat="42.924478" lon="0.413232">
        <ele>1199.8</ele>
        <time>2019-01-02T15:01:14Z</time>
      </trkpt>
      <trkpt lat="42.924603" lon="0.413154">
        <ele>1199.6</ele>
        <time>2019-01-02T15:01:25Z</time>
      </trkpt>
      <trkpt lat="42.924637" lon="0.412991">
        <ele>1199.9</ele>
        <time>2019-01-02T15:01:35Z</time>
      </trkpt>
      <trkpt lat="42.924618" lon="0.412835">
        <ele>1199.9</ele>
        <time>2019-01-02T15:01:43Z</time>
      </trkpt>
      <trkpt lat="42.924588" lon="0.412697">
        <ele>1200.2</ele>
        <time>2019-01-02T15:01:51Z</time>
      </trkpt>
      <trkpt lat="42.924584" lon="0.412556">
        <ele>1200.5</ele>
        <time>2019-01-02T15:01:59Z</time>
      </trkpt>
      <trkpt lat="42.924537" lon="0.412426">
        <ele>1200.4</ele>
        <time>2019-01-02T15:02:07Z</time>
      </trkpt>
      <trkpt lat="42.924490" lon="0.412300">
        <ele>1199.7</ele>
        <time>2019-01-02T15:02:14Z</time>
      </trkpt>
      <trkpt lat="42.924457" lon="0.412191">
        <ele>1198.6</ele>
        <time>2019-01-02T15:02:21Z</time>
      </trkpt>
      <trkpt lat="42.924372" lon="0.412075">
        <ele>1197.6</ele>
        <time>2019-01-02T15:02:28Z</time>
      </trkpt>
      <trkpt lat="42.924319" lon="0.411991">
        <ele>1196.8</ele>
        <time>2019-01-02T15:02:34Z</time>
      </trkpt>
      <trkpt lat="42.924268" lon="0.411889">
        <ele>1195.9</ele>
        <time>2019-01-02T15:02:42Z</time>
      </trkpt>
      <trkpt lat="42.924246" lon="0.411764">
        <ele>1195.3</ele>
        <time>2019-01-02T15:02:49Z</time>
      </trkpt>
      <trkpt lat="42.924261" lon="0.411629">
        <ele>1194.6</ele>
        <time>2019-01-02T15:02:57Z</time>
      </trkpt>
      <trkpt lat="42.924271" lon="0.411509">
        <ele>1193.4</ele>
        <time>2019-01-02T15:03:50Z</time>
      </trkpt>
      <trkpt lat="42.924284" lon="0.411377">
        <ele>1192.4</ele>
        <time>2019-01-02T15:04:00Z</time>
      </trkpt>
      <trkpt lat="42.924309" lon="0.411223">
        <ele>1191.4</ele>
        <time>2019-01-02T15:04:08Z</time>
      </trkpt>
      <trkpt lat="42.924325" lon="0.411092">
        <ele>1189.5</ele>
        <time>2019-01-02T15:04:16Z</time>
      </trkpt>
      <trkpt lat="42.924334" lon="0.410980">
        <ele>1187.2</ele>
        <time>2019-01-02T15:04:25Z</time>
      </trkpt>
      <trkpt lat="42.924337" lon="0.410818">
        <ele>1184.8</ele>
        <time>2019-01-02T15:04:35Z</time>
      </trkpt>
      <trkpt lat="42.924337" lon="0.410667">
        <ele>1182.4</ele>
        <time>2019-01-02T15:04:44Z</time>
      </trkpt>
      <trkpt lat="42.924319" lon="0.410515">
        <ele>1179.9</ele>
        <time>2019-01-02T15:04:53Z</time>
      </trkpt>
      <trkpt lat="42.924337" lon="0.410369">
        <ele>1177.4</ele>
        <time>2019-01-02T15:05:02Z</time>
      </trkpt>
      <trkpt lat="42.924372" lon="0.410225">
        <ele>1175.3</ele>
        <time>2019-01-02T15:05:09Z</time>
      </trkpt>
      <trkpt lat="42.924397" lon="0.410108">
        <ele>1173.5</ele>
        <time>2019-01-02T15:05:16Z</time>
      </trkpt>
      <trkpt lat="42.924416" lon="0.409976">
        <ele>1172.0</ele>
        <time>2019-01-02T15:05:24Z</time>
      </trkpt>
      <trkpt lat="42.924453" lon="0.409843">
        <ele>1169.7</ele>
        <time>2019-01-02T15:05:34Z</time>
      </trkpt>
      <trkpt lat="42.924499" lon="0.409719">
        <ele>1167.6</ele>
        <time>2019-01-02T15:05:43Z</time>
      </trkpt>
      <trkpt lat="42.924524" lon="0.409585">
        <ele>1165.2</ele>
        <time>2019-01-02T15:05:52Z</time>
      </trkpt>
      <trkpt lat="42.924558" lon="0.409447">
        <ele>1161.9</ele>
        <time>2019-01-02T15:06:03Z</time>
      </trkpt>
      <trkpt lat="42.924570" lon="0.409327">
        <ele>1159.1</ele>
        <time>2019-01-02T15:06:12Z</time>
      </trkpt>
      <trkpt lat="42.924550" lon="0.409189">
        <ele>1155.4</ele>
        <time>2019-01-02T15:06:21Z</time>
      </trkpt>
      <trkpt lat="42.924623" lon="0.409085">
        <ele>1151.8</ele>
        <time>2019-01-02T15:06:30Z</time>
      </trkpt>
      <trkpt lat="42.924676" lon="0.408986">
        <ele>1148.7</ele>
        <time>2019-01-02T15:06:39Z</time>
      </trkpt>
      <trkpt lat="42.924763" lon="0.408870">
        <ele>1144.7</ele>
        <time>2019-01-02T15:06:50Z</time>
      </trkpt>
      <trkpt lat="42.924868" lon="0.408811">
        <ele>1141.6</ele>
        <time>2019-01-02T15:06:59Z</time>
      </trkpt>
      <trkpt lat="42.924945" lon="0.408749">
        <ele>1139.2</ele>
        <time>2019-01-02T15:07:07Z</time>
      </trkpt>
      <trkpt lat="42.925018" lon="0.408651">
        <ele>1137.8</ele>
        <time>2019-01-02T15:07:15Z</time>
      </trkpt>
      <trkpt lat="42.925063" lon="0.408563">
        <ele>1136.5</ele>
        <time>2019-01-02T15:07:23Z</time>
      </trkpt>
      <trkpt lat="42.925117" lon="0.408433">
        <ele>1134.8</ele>
        <time>2019-01-02T15:07:33Z</time>
      </trkpt>
      <trkpt lat="42.925176" lon="0.408313">
        <ele>1132.7</ele>
        <time>2019-01-02T15:07:42Z</time>
      </trkpt>
      <trkpt lat="42.925214" lon="0.408184">
        <ele>1130.4</ele>
        <time>2019-01-02T15:07:50Z</time>
      </trkpt>
      <trkpt lat="42.925246" lon="0.408065">
        <ele>1128.1</ele>
        <time>2019-01-02T15:07:58Z</time>
      </trkpt>
      <trkpt lat="42.925303" lon="0.407959">
        <ele>1125.7</ele>
        <time>2019-01-02T15:08:08Z</time>
      </trkpt>
      <trkpt lat="42.925351" lon="0.407825">
        <ele>1124.0</ele>
        <time>2019-01-02T15:08:16Z</time>
      </trkpt>
      <trkpt lat="42.925413" lon="0.407709">
        <ele>1122.3</ele>
        <time>2019-01-02T15:08:24Z</time>
      </trkpt>
      <trkpt lat="42.925494" lon="0.407626">
        <ele>1121.1</ele>
        <time>2019-01-02T15:08:32Z</time>
      </trkpt>
      <trkpt lat="42.925595" lon="0.407571">
        <ele>1119.9</ele>
        <time>2019-01-02T15:08:41Z</time>
      </trkpt>
      <trkpt lat="42.925700" lon="0.407571">
        <ele>1117.8</ele>
        <time>2019-01-02T15:08:50Z</time>
      </trkpt>
      <trkpt lat="42.925846" lon="0.407556">
        <ele>1115.8</ele>
        <time>2019-01-02T15:09:00Z</time>
      </trkpt>
      <trkpt lat="42.925946" lon="0.407538">
        <ele>1114.7</ele>
        <time>2019-01-02T15:09:07Z</time>
      </trkpt>
      <trkpt lat="42.925963" lon="0.407433">
        <ele>1113.1</ele>
        <time>2019-01-02T15:09:15Z</time>
      </trkpt>
      <trkpt lat="42.925956" lon="0.407306">
        <ele>1111.6</ele>
        <time>2019-01-02T15:09:22Z</time>
      </trkpt>
      <trkpt lat="42.925919" lon="0.407199">
        <ele>1109.7</ele>
        <time>2019-01-02T15:09:30Z</time>
      </trkpt>
      <trkpt lat="42.925861" lon="0.407086">
        <ele>1108.1</ele>
        <time>2019-01-02T15:09:38Z</time>
      </trkpt>
      <trkpt lat="42.925819" lon="0.406961">
        <ele>1105.7</ele>
        <time>2019-01-02T15:09:47Z</time>
      </trkpt>
      <trkpt lat="42.925767" lon="0.406838">
        <ele>1103.8</ele>
        <time>2019-01-02T15:09:54Z</time>
      </trkpt>
      <trkpt lat="42.925744" lon="0.406721">
        <ele>1102.1</ele>
        <time>2019-01-02T15:10:02Z</time>
      </trkpt>
      <trkpt lat="42.925716" lon="0.406604">
        <ele>1100.6</ele>
        <time>2019-01-02T15:10:11Z</time>
      </trkpt>
      <trkpt lat="42.925667" lon="0.406484">
        <ele>1099.3</ele>
        <time>2019-01-02T15:10:20Z</time>
      </trkpt>
      <trkpt lat="42.925622" lon="0.406380">
        <ele>1098.4</ele>
        <time>2019-01-02T15:10:27Z</time>
      </trkpt>
      <trkpt lat="42.925587" lon="0.406270">
        <ele>1097.7</ele>
        <time>2019-01-02T15:10:35Z</time>
      </trkpt>
      <trkpt lat="42.925530" lon="0.406157">
        <ele>1097.3</ele>
        <time>2019-01-02T15:10:43Z</time>
      </trkpt>
      <trkpt lat="42.925474" lon="0.406048">
        <ele>1097.1</ele>
        <time>2019-01-02T15:10:53Z</time>
      </trkpt>
      <trkpt lat="42.925430" lon="0.405953">
        <ele>1097.0</ele>
        <time>2019-01-02T15:11:01Z</time>
      </trkpt>
      <trkpt lat="42.925382" lon="0.405859">
        <ele>1097.1</ele>
        <time>2019-01-02T15:11:09Z</time>
      </trkpt>
      <trkpt lat="42.925339" lon="0.405754">
        <ele>1097.0</ele>
        <time>2019-01-02T15:11:18Z</time>
      </trkpt>
      <trkpt lat="42.925291" lon="0.405642">
        <ele>1095.9</ele>
        <time>2019-01-02T15:11:31Z</time>
      </trkpt>
      <trkpt lat="42.925281" lon="0.405522">
        <ele>1096.0</ele>
        <time>2019-01-02T15:11:57Z</time>
      </trkpt>
      <trkpt lat="42.925230" lon="0.405402">
        <ele>1096.5</ele>
        <time>2019-01-02T15:12:14Z</time>
      </trkpt>
      <trkpt lat="42.925158" lon="0.405285">
        <ele>1096.8</ele>
        <time>2019-01-02T15:12:22Z</time>
      </trkpt>
      <trkpt lat="42.925103" lon="0.405163">
        <ele>1097.0</ele>
        <time>2019-01-02T15:12:29Z</time>
      </trkpt>
      <trkpt lat="42.925079" lon="0.405054">
        <ele>1097.4</ele>
        <time>2019-01-02T15:12:35Z</time>
      </trkpt>
      <trkpt lat="42.925077" lon="0.404935">
        <ele>1098.1</ele>
        <time>2019-01-02T15:12:42Z</time>
      </trkpt>
      <trkpt lat="42.925125" lon="0.404799">
        <ele>1099.0</ele>
        <time>2019-01-02T15:12:52Z</time>
      </trkpt>
      <trkpt lat="42.925150" lon="0.404667">
        <ele>1099.3</ele>
        <time>2019-01-02T15:13:00Z</time>
      </trkpt>
      <trkpt lat="42.925184" lon="0.404537">
        <ele>1099.5</ele>
        <time>2019-01-02T15:13:08Z</time>
      </trkpt>
      <trkpt lat="42.925183" lon="0.404414">
        <ele>1098.9</ele>
        <time>2019-01-02T15:13:14Z</time>
      </trkpt>
      <trkpt lat="42.925217" lon="0.404307">
        <ele>1098.4</ele>
        <time>2019-01-02T15:13:21Z</time>
      </trkpt>
      <trkpt lat="42.925273" lon="0.404172">
        <ele>1097.7</ele>
        <time>2019-01-02T15:13:28Z</time>
      </trkpt>
      <trkpt lat="42.925286" lon="0.404060">
        <ele>1097.1</ele>
        <time>2019-01-02T15:13:36Z</time>
      </trkpt>
      <trkpt lat="42.925269" lon="0.403929">
        <ele>1096.4</ele>
        <time>2019-01-02T15:13:43Z</time>
      </trkpt>
      <trkpt lat="42.925245" lon="0.403808">
        <ele>1095.0</ele>
        <time>2019-01-02T15:13:50Z</time>
      </trkpt>
      <trkpt lat="42.925270" lon="0.403691">
        <ele>1092.7</ele>
        <time>2019-01-02T15:13:59Z</time>
      </trkpt>
      <trkpt lat="42.925296" lon="0.403587">
        <ele>1090.7</ele>
        <time>2019-01-02T15:14:08Z</time>
      </trkpt>
      <trkpt lat="42.925204" lon="0.403584">
        <ele>1088.5</ele>
        <time>2019-01-02T15:14:18Z</time>
      </trkpt>
      <trkpt lat="42.925124" lon="0.403653">
        <ele>1087.2</ele>
        <time>2019-01-02T15:14:29Z</time>
      </trkpt>
      <trkpt lat="42.925035" lon="0.403718">
        <ele>1085.1</ele>
        <time>2019-01-02T15:14:47Z</time>
      </trkpt>
    </trkseg>
  </trk>
</gpx>

